<?xml version="1.0" encoding="UTF-8" standalone="no" ?>
<gpx xmlns="http://www.topografix.com/GPX/1/1" xmlns:xsi="http://www.w3.org/2001/XMLSchema-instance" xsi:schemaLocation="http://www.topografix.com/GPX/1/1 http://www.topografix.com/GPX/1/1/gpx.xsd" version="1.1" creator="VisuGPX - https://www.visugpx.com">
  <metadata>
    <name>Ouest MTP_Juvignac_Murviel_st_georges_Laverune</name>
  </metadata>
  <trk>
    <name><![CDATA[Ouest MTP_Juvignac_Murviel_st_georges_Laverune]]></name>
    <extensions>
      <line xmlns="http://www.topografix.com/GPX/gpx_style/0/2">
        <color>0000FF</color>
        <width>4</width>
      </line>
    </extensions>
    <trkseg>
      <trkpt lat="43.61149" lon="3.82879">
        <ele>57</ele>
        <time>2022-03-22T11:52:48Z</time>
      </trkpt>
      <trkpt lat="43.61174" lon="3.82866">
        <ele>56.7</ele>
        <time>2022-03-22T11:52:58Z</time>
      </trkpt>
      <trkpt lat="43.61164" lon="3.82799">
        <ele>55.9</ele>
        <time>2022-03-22T11:53:08Z</time>
      </trkpt>
      <trkpt lat="43.61171" lon="3.82742">
        <ele>55.6</ele>
        <time>2022-03-22T11:53:18Z</time>
      </trkpt>
      <trkpt lat="43.61181" lon="3.82684">
        <ele>54.8</ele>
        <time>2022-03-22T11:53:28Z</time>
      </trkpt>
      <trkpt lat="43.61192" lon="3.82621">
        <ele>54.9</ele>
        <time>2022-03-22T11:53:38Z</time>
      </trkpt>
      <trkpt lat="43.61205" lon="3.82552">
        <ele>53.8</ele>
        <time>2022-03-22T11:53:48Z</time>
      </trkpt>
      <trkpt lat="43.61244" lon="3.82522">
        <ele>52.2</ele>
        <time>2022-03-22T11:53:58Z</time>
      </trkpt>
      <trkpt lat="43.61284" lon="3.82491">
        <ele>50.3</ele>
        <time>2022-03-22T11:54:08Z</time>
      </trkpt>
      <trkpt lat="43.61307" lon="3.82428">
        <ele>49.9</ele>
        <time>2022-03-22T11:54:18Z</time>
      </trkpt>
      <trkpt lat="43.61303" lon="3.82352">
        <ele>50</ele>
        <time>2022-03-22T11:54:28Z</time>
      </trkpt>
      <trkpt lat="43.6133" lon="3.82303">
        <ele>52.7</ele>
        <time>2022-03-22T11:54:38Z</time>
      </trkpt>
      <trkpt lat="43.61388" lon="3.82262">
        <ele>45.9</ele>
        <time>2022-03-22T11:54:48Z</time>
      </trkpt>
      <trkpt lat="43.61457" lon="3.82216">
        <ele>43.4</ele>
        <time>2022-03-22T11:54:58Z</time>
      </trkpt>
      <trkpt lat="43.61509" lon="3.82205">
        <ele>44.1</ele>
        <time>2022-03-22T11:55:08Z</time>
      </trkpt>
      <trkpt lat="43.61535" lon="3.82187">
        <ele>44.1</ele>
        <time>2022-03-22T11:55:18Z</time>
      </trkpt>
      <trkpt lat="43.61543" lon="3.82156">
        <ele>42.6</ele>
        <time>2022-03-22T11:55:28Z</time>
      </trkpt>
      <trkpt lat="43.61543" lon="3.82139">
        <ele>42</ele>
        <time>2022-03-22T11:55:38Z</time>
      </trkpt>
      <trkpt lat="43.61552" lon="3.82075">
        <ele>43.8</ele>
        <time>2022-03-22T11:55:48Z</time>
      </trkpt>
      <trkpt lat="43.61556" lon="3.8203">
        <ele>40.2</ele>
        <time>2022-03-22T11:55:58Z</time>
      </trkpt>
      <trkpt lat="43.61568" lon="3.8198">
        <ele>39.4</ele>
        <time>2022-03-22T11:56:08Z</time>
      </trkpt>
      <trkpt lat="43.61593" lon="3.81952">
        <ele>39.5</ele>
        <time>2022-03-22T11:56:18Z</time>
      </trkpt>
      <trkpt lat="43.61578" lon="3.81892">
        <ele>38.8</ele>
        <time>2022-03-22T11:56:28Z</time>
      </trkpt>
      <trkpt lat="43.6156" lon="3.81825">
        <ele>37.5</ele>
        <time>2022-03-22T11:56:38Z</time>
      </trkpt>
      <trkpt lat="43.61544" lon="3.81768">
        <ele>36</ele>
        <time>2022-03-22T11:56:48Z</time>
      </trkpt>
      <trkpt lat="43.61531" lon="3.81717">
        <ele>32.3</ele>
        <time>2022-03-22T11:56:58Z</time>
      </trkpt>
      <trkpt lat="43.61515" lon="3.81659">
        <ele>36.1</ele>
        <time>2022-03-22T11:57:08Z</time>
      </trkpt>
      <trkpt lat="43.61499" lon="3.81594">
        <ele>38</ele>
        <time>2022-03-22T11:57:18Z</time>
      </trkpt>
      <trkpt lat="43.6149" lon="3.8154">
        <ele>39.5</ele>
        <time>2022-03-22T11:57:28Z</time>
      </trkpt>
      <trkpt lat="43.61487" lon="3.81516">
        <ele>40.6</ele>
        <time>2022-03-22T11:57:38Z</time>
      </trkpt>
      <trkpt lat="43.61467" lon="3.81507">
        <ele>41.6</ele>
        <time>2022-03-22T11:57:48Z</time>
      </trkpt>
      <trkpt lat="43.61461" lon="3.81478">
        <ele>42.3</ele>
        <time>2022-03-22T11:57:58Z</time>
      </trkpt>
      <trkpt lat="43.61452" lon="3.81432">
        <ele>43.1</ele>
        <time>2022-03-22T11:58:08Z</time>
      </trkpt>
      <trkpt lat="43.61436" lon="3.81391">
        <ele>44</ele>
        <time>2022-03-22T11:58:18Z</time>
      </trkpt>
      <trkpt lat="43.61421" lon="3.81337">
        <ele>44.2</ele>
        <time>2022-03-22T11:58:28Z</time>
      </trkpt>
      <trkpt lat="43.6141" lon="3.81287">
        <ele>45.4</ele>
        <time>2022-03-22T11:58:38Z</time>
      </trkpt>
      <trkpt lat="43.61405" lon="3.81244">
        <ele>46.7</ele>
        <time>2022-03-22T11:58:48Z</time>
      </trkpt>
      <trkpt lat="43.61406" lon="3.81197">
        <ele>47.6</ele>
        <time>2022-03-22T11:58:58Z</time>
      </trkpt>
      <trkpt lat="43.61407" lon="3.81149">
        <ele>48.9</ele>
        <time>2022-03-22T11:59:08Z</time>
      </trkpt>
      <trkpt lat="43.61406" lon="3.81102">
        <ele>49.6</ele>
        <time>2022-03-22T11:59:18Z</time>
      </trkpt>
      <trkpt lat="43.61418" lon="3.81068">
        <ele>50.6</ele>
        <time>2022-03-22T11:59:28Z</time>
      </trkpt>
      <trkpt lat="43.614" lon="3.81035">
        <ele>51.1</ele>
        <time>2022-03-22T11:59:38Z</time>
      </trkpt>
      <trkpt lat="43.61397" lon="3.80993">
        <ele>51.8</ele>
        <time>2022-03-22T11:59:48Z</time>
      </trkpt>
      <trkpt lat="43.61391" lon="3.8096">
        <ele>52.6</ele>
        <time>2022-03-22T11:59:58Z</time>
      </trkpt>
      <trkpt lat="43.61386" lon="3.80911">
        <ele>54.1</ele>
        <time>2022-03-22T12:00:08Z</time>
      </trkpt>
      <trkpt lat="43.61383" lon="3.80861">
        <ele>55.4</ele>
        <time>2022-03-22T12:00:18Z</time>
      </trkpt>
      <trkpt lat="43.61381" lon="3.80807">
        <ele>54.8</ele>
        <time>2022-03-22T12:00:28Z</time>
      </trkpt>
      <trkpt lat="43.61383" lon="3.80747">
        <ele>54.6</ele>
        <time>2022-03-22T12:00:38Z</time>
      </trkpt>
      <trkpt lat="43.61389" lon="3.8069">
        <ele>55</ele>
        <time>2022-03-22T12:00:48Z</time>
      </trkpt>
      <trkpt lat="43.61394" lon="3.80635">
        <ele>55.3</ele>
        <time>2022-03-22T12:00:58Z</time>
      </trkpt>
      <trkpt lat="43.61395" lon="3.8058">
        <ele>56.3</ele>
        <time>2022-03-22T12:01:08Z</time>
      </trkpt>
      <trkpt lat="43.61395" lon="3.80531">
        <ele>57.7</ele>
        <time>2022-03-22T12:01:18Z</time>
      </trkpt>
      <trkpt lat="43.61399" lon="3.80479">
        <ele>58</ele>
        <time>2022-03-22T12:01:28Z</time>
      </trkpt>
      <trkpt lat="43.61403" lon="3.80428">
        <ele>58.8</ele>
        <time>2022-03-22T12:01:38Z</time>
      </trkpt>
      <trkpt lat="43.61407" lon="3.80378">
        <ele>60.1</ele>
        <time>2022-03-22T12:01:48Z</time>
      </trkpt>
      <trkpt lat="43.61409" lon="3.80327">
        <ele>60.7</ele>
        <time>2022-03-22T12:01:58Z</time>
      </trkpt>
      <trkpt lat="43.61414" lon="3.80279">
        <ele>61.2</ele>
        <time>2022-03-22T12:02:08Z</time>
      </trkpt>
      <trkpt lat="43.61422" lon="3.80227">
        <ele>62.7</ele>
        <time>2022-03-22T12:02:18Z</time>
      </trkpt>
      <trkpt lat="43.61431" lon="3.80175">
        <ele>63.7</ele>
        <time>2022-03-22T12:02:28Z</time>
      </trkpt>
      <trkpt lat="43.61441" lon="3.80128">
        <ele>64.3</ele>
        <time>2022-03-22T12:02:38Z</time>
      </trkpt>
      <trkpt lat="43.61451" lon="3.80081">
        <ele>65.3</ele>
        <time>2022-03-22T12:02:48Z</time>
      </trkpt>
      <trkpt lat="43.61465" lon="3.80044">
        <ele>66.3</ele>
        <time>2022-03-22T12:02:58Z</time>
      </trkpt>
      <trkpt lat="43.61436" lon="3.80017">
        <ele>65.4</ele>
        <time>2022-03-22T12:03:08Z</time>
      </trkpt>
      <trkpt lat="43.61403" lon="3.79928">
        <ele>63.8</ele>
        <time>2022-03-22T12:03:18Z</time>
      </trkpt>
      <trkpt lat="43.61382" lon="3.79882">
        <ele>63.1</ele>
        <time>2022-03-22T12:03:28Z</time>
      </trkpt>
      <trkpt lat="43.61395" lon="3.79821">
        <ele>61.3</ele>
        <time>2022-03-22T12:03:38Z</time>
      </trkpt>
      <trkpt lat="43.61415" lon="3.79738">
        <ele>57.6</ele>
        <time>2022-03-22T12:03:48Z</time>
      </trkpt>
      <trkpt lat="43.61442" lon="3.79645">
        <ele>54.4</ele>
        <time>2022-03-22T12:03:58Z</time>
      </trkpt>
      <trkpt lat="43.61454" lon="3.79546">
        <ele>52.3</ele>
        <time>2022-03-22T12:04:08Z</time>
      </trkpt>
      <trkpt lat="43.61459" lon="3.79467">
        <ele>52.4</ele>
        <time>2022-03-22T12:04:18Z</time>
      </trkpt>
      <trkpt lat="43.61467" lon="3.79412">
        <ele>52.9</ele>
        <time>2022-03-22T12:04:28Z</time>
      </trkpt>
      <trkpt lat="43.61477" lon="3.79373">
        <ele>52.3</ele>
        <time>2022-03-22T12:05:28Z</time>
      </trkpt>
      <trkpt lat="43.61494" lon="3.79319">
        <ele>53.9</ele>
        <time>2022-03-22T12:05:48Z</time>
      </trkpt>
      <trkpt lat="43.61511" lon="3.79261">
        <ele>54.3</ele>
        <time>2022-03-22T12:05:58Z</time>
      </trkpt>
      <trkpt lat="43.61527" lon="3.79202">
        <ele>54.6</ele>
        <time>2022-03-22T12:06:08Z</time>
      </trkpt>
      <trkpt lat="43.61543" lon="3.79149">
        <ele>56.2</ele>
        <time>2022-03-22T12:06:18Z</time>
      </trkpt>
      <trkpt lat="43.61554" lon="3.79089">
        <ele>56</ele>
        <time>2022-03-22T12:06:28Z</time>
      </trkpt>
      <trkpt lat="43.61564" lon="3.79037">
        <ele>58.3</ele>
        <time>2022-03-22T12:06:38Z</time>
      </trkpt>
      <trkpt lat="43.61565" lon="3.78979">
        <ele>58.7</ele>
        <time>2022-03-22T12:06:48Z</time>
      </trkpt>
      <trkpt lat="43.61558" lon="3.78926">
        <ele>57.3</ele>
        <time>2022-03-22T12:06:58Z</time>
      </trkpt>
      <trkpt lat="43.61556" lon="3.78902">
        <ele>57.1</ele>
        <time>2022-03-22T12:07:08Z</time>
      </trkpt>
      <trkpt lat="43.61548" lon="3.78864">
        <ele>59.3</ele>
        <time>2022-03-22T12:07:18Z</time>
      </trkpt>
      <trkpt lat="43.61546" lon="3.78825">
        <ele>60.2</ele>
        <time>2022-03-22T12:07:28Z</time>
      </trkpt>
      <trkpt lat="43.61561" lon="3.78786">
        <ele>59.2</ele>
        <time>2022-03-22T12:07:38Z</time>
      </trkpt>
      <trkpt lat="43.61573" lon="3.78761">
        <ele>60</ele>
        <time>2022-03-22T12:07:48Z</time>
      </trkpt>
      <trkpt lat="43.6158" lon="3.78743">
        <ele>60.7</ele>
        <time>2022-03-22T12:07:58Z</time>
      </trkpt>
      <trkpt lat="43.61593" lon="3.78724">
        <ele>63</ele>
        <time>2022-03-22T12:08:08Z</time>
      </trkpt>
      <trkpt lat="43.61606" lon="3.78702">
        <ele>64.1</ele>
        <time>2022-03-22T12:08:18Z</time>
      </trkpt>
      <trkpt lat="43.6162" lon="3.78683">
        <ele>65.5</ele>
        <time>2022-03-22T12:08:28Z</time>
      </trkpt>
      <trkpt lat="43.61631" lon="3.78665">
        <ele>67.1</ele>
        <time>2022-03-22T12:08:38Z</time>
      </trkpt>
      <trkpt lat="43.6165" lon="3.78643">
        <ele>68.6</ele>
        <time>2022-03-22T12:08:48Z</time>
      </trkpt>
      <trkpt lat="43.61664" lon="3.78622">
        <ele>70</ele>
        <time>2022-03-22T12:08:58Z</time>
      </trkpt>
      <trkpt lat="43.61673" lon="3.78607">
        <ele>71.3</ele>
        <time>2022-03-22T12:09:08Z</time>
      </trkpt>
      <trkpt lat="43.6168" lon="3.7859">
        <ele>73.2</ele>
        <time>2022-03-22T12:09:18Z</time>
      </trkpt>
      <trkpt lat="43.6169" lon="3.7857">
        <ele>74.7</ele>
        <time>2022-03-22T12:09:28Z</time>
      </trkpt>
      <trkpt lat="43.617" lon="3.78548">
        <ele>76.5</ele>
        <time>2022-03-22T12:09:39Z</time>
      </trkpt>
      <trkpt lat="43.6171" lon="3.7853">
        <ele>77.8</ele>
        <time>2022-03-22T12:09:49Z</time>
      </trkpt>
      <trkpt lat="43.61718" lon="3.78509">
        <ele>79.5</ele>
        <time>2022-03-22T12:09:59Z</time>
      </trkpt>
      <trkpt lat="43.61725" lon="3.78485">
        <ele>80.4</ele>
        <time>2022-03-22T12:10:09Z</time>
      </trkpt>
      <trkpt lat="43.61729" lon="3.78455">
        <ele>81</ele>
        <time>2022-03-22T12:10:19Z</time>
      </trkpt>
      <trkpt lat="43.61726" lon="3.78411">
        <ele>80.9</ele>
        <time>2022-03-22T12:10:29Z</time>
      </trkpt>
      <trkpt lat="43.61716" lon="3.78338">
        <ele>79.6</ele>
        <time>2022-03-22T12:10:39Z</time>
      </trkpt>
      <trkpt lat="43.61722" lon="3.78284">
        <ele>80.8</ele>
        <time>2022-03-22T12:10:49Z</time>
      </trkpt>
      <trkpt lat="43.61731" lon="3.78241">
        <ele>82.6</ele>
        <time>2022-03-22T12:10:59Z</time>
      </trkpt>
      <trkpt lat="43.61743" lon="3.78192">
        <ele>82.9</ele>
        <time>2022-03-22T12:11:09Z</time>
      </trkpt>
      <trkpt lat="43.61754" lon="3.78145">
        <ele>84.2</ele>
        <time>2022-03-22T12:11:19Z</time>
      </trkpt>
      <trkpt lat="43.6177" lon="3.781">
        <ele>85.1</ele>
        <time>2022-03-22T12:11:29Z</time>
      </trkpt>
      <trkpt lat="43.61798" lon="3.78065">
        <ele>85.1</ele>
        <time>2022-03-22T12:11:39Z</time>
      </trkpt>
      <trkpt lat="43.61825" lon="3.7802">
        <ele>86.1</ele>
        <time>2022-03-22T12:11:49Z</time>
      </trkpt>
      <trkpt lat="43.61836" lon="3.77975">
        <ele>87.9</ele>
        <time>2022-03-22T12:11:59Z</time>
      </trkpt>
      <trkpt lat="43.61839" lon="3.77929">
        <ele>90.2</ele>
        <time>2022-03-22T12:12:09Z</time>
      </trkpt>
      <trkpt lat="43.61838" lon="3.77885">
        <ele>90.8</ele>
        <time>2022-03-22T12:12:19Z</time>
      </trkpt>
      <trkpt lat="43.61824" lon="3.77865">
        <ele>92</ele>
        <time>2022-03-22T12:12:29Z</time>
      </trkpt>
      <trkpt lat="43.61802" lon="3.77864">
        <ele>94</ele>
        <time>2022-03-22T12:12:39Z</time>
      </trkpt>
      <trkpt lat="43.6179" lon="3.7784">
        <ele>96.3</ele>
        <time>2022-03-22T12:12:49Z</time>
      </trkpt>
      <trkpt lat="43.61797" lon="3.77814">
        <ele>96</ele>
        <time>2022-03-22T12:13:29Z</time>
      </trkpt>
      <trkpt lat="43.61806" lon="3.77773">
        <ele>96.1</ele>
        <time>2022-03-22T12:13:49Z</time>
      </trkpt>
      <trkpt lat="43.61816" lon="3.77729">
        <ele>96.6</ele>
        <time>2022-03-22T12:13:59Z</time>
      </trkpt>
      <trkpt lat="43.61828" lon="3.77688">
        <ele>97.6</ele>
        <time>2022-03-22T12:14:09Z</time>
      </trkpt>
      <trkpt lat="43.61839" lon="3.77648">
        <ele>97.5</ele>
        <time>2022-03-22T12:14:19Z</time>
      </trkpt>
      <trkpt lat="43.61853" lon="3.77608">
        <ele>98.1</ele>
        <time>2022-03-22T12:14:29Z</time>
      </trkpt>
      <trkpt lat="43.61864" lon="3.77569">
        <ele>99.7</ele>
        <time>2022-03-22T12:14:39Z</time>
      </trkpt>
      <trkpt lat="43.61875" lon="3.77529">
        <ele>100</ele>
        <time>2022-03-22T12:14:49Z</time>
      </trkpt>
      <trkpt lat="43.61887" lon="3.77487">
        <ele>101.1</ele>
        <time>2022-03-22T12:14:59Z</time>
      </trkpt>
      <trkpt lat="43.619" lon="3.77449">
        <ele>101.6</ele>
        <time>2022-03-22T12:15:09Z</time>
      </trkpt>
      <trkpt lat="43.61909" lon="3.77418">
        <ele>102.7</ele>
        <time>2022-03-22T12:15:19Z</time>
      </trkpt>
      <trkpt lat="43.61927" lon="3.77381">
        <ele>104</ele>
        <time>2022-03-22T12:15:29Z</time>
      </trkpt>
      <trkpt lat="43.61943" lon="3.7734">
        <ele>104.3</ele>
        <time>2022-03-22T12:15:39Z</time>
      </trkpt>
      <trkpt lat="43.6196" lon="3.77299">
        <ele>106.7</ele>
        <time>2022-03-22T12:15:49Z</time>
      </trkpt>
      <trkpt lat="43.61977" lon="3.77256">
        <ele>106.1</ele>
        <time>2022-03-22T12:15:59Z</time>
      </trkpt>
      <trkpt lat="43.61994" lon="3.77214">
        <ele>105.6</ele>
        <time>2022-03-22T12:16:09Z</time>
      </trkpt>
      <trkpt lat="43.62011" lon="3.77173">
        <ele>103.5</ele>
        <time>2022-03-22T12:16:19Z</time>
      </trkpt>
      <trkpt lat="43.62028" lon="3.77131">
        <ele>105.4</ele>
        <time>2022-03-22T12:16:29Z</time>
      </trkpt>
      <trkpt lat="43.62045" lon="3.7709">
        <ele>104</ele>
        <time>2022-03-22T12:16:39Z</time>
      </trkpt>
      <trkpt lat="43.62062" lon="3.77049">
        <ele>109.2</ele>
        <time>2022-03-22T12:16:49Z</time>
      </trkpt>
      <trkpt lat="43.62079" lon="3.77008">
        <ele>111.1</ele>
        <time>2022-03-22T12:16:59Z</time>
      </trkpt>
      <trkpt lat="43.62096" lon="3.76968">
        <ele>113.4</ele>
        <time>2022-03-22T12:17:09Z</time>
      </trkpt>
      <trkpt lat="43.62113" lon="3.76931">
        <ele>113.4</ele>
        <time>2022-03-22T12:17:19Z</time>
      </trkpt>
      <trkpt lat="43.62128" lon="3.76888">
        <ele>113.8</ele>
        <time>2022-03-22T12:17:29Z</time>
      </trkpt>
      <trkpt lat="43.62141" lon="3.76844">
        <ele>114.4</ele>
        <time>2022-03-22T12:17:39Z</time>
      </trkpt>
      <trkpt lat="43.62152" lon="3.76805">
        <ele>116.2</ele>
        <time>2022-03-22T12:17:49Z</time>
      </trkpt>
      <trkpt lat="43.62166" lon="3.76755">
        <ele>114.9</ele>
        <time>2022-03-22T12:17:59Z</time>
      </trkpt>
      <trkpt lat="43.62178" lon="3.76708">
        <ele>116.4</ele>
        <time>2022-03-22T12:18:09Z</time>
      </trkpt>
      <trkpt lat="43.62191" lon="3.76664">
        <ele>117.7</ele>
        <time>2022-03-22T12:18:19Z</time>
      </trkpt>
      <trkpt lat="43.62205" lon="3.76618">
        <ele>117.7</ele>
        <time>2022-03-22T12:18:29Z</time>
      </trkpt>
      <trkpt lat="43.62218" lon="3.76573">
        <ele>118.6</ele>
        <time>2022-03-22T12:18:39Z</time>
      </trkpt>
      <trkpt lat="43.6223" lon="3.76528">
        <ele>118.9</ele>
        <time>2022-03-22T12:18:49Z</time>
      </trkpt>
      <trkpt lat="43.62241" lon="3.7648">
        <ele>118.6</ele>
        <time>2022-03-22T12:18:59Z</time>
      </trkpt>
      <trkpt lat="43.62249" lon="3.76434">
        <ele>120.5</ele>
        <time>2022-03-22T12:19:09Z</time>
      </trkpt>
      <trkpt lat="43.62256" lon="3.76394">
        <ele>120.7</ele>
        <time>2022-03-22T12:19:19Z</time>
      </trkpt>
      <trkpt lat="43.62262" lon="3.76346">
        <ele>121.1</ele>
        <time>2022-03-22T12:19:29Z</time>
      </trkpt>
      <trkpt lat="43.62267" lon="3.76314">
        <ele>121.2</ele>
        <time>2022-03-22T12:19:39Z</time>
      </trkpt>
      <trkpt lat="43.62271" lon="3.76287">
        <ele>122.1</ele>
        <time>2022-03-22T12:19:49Z</time>
      </trkpt>
      <trkpt lat="43.62273" lon="3.76262">
        <ele>123</ele>
        <time>2022-03-22T12:19:59Z</time>
      </trkpt>
      <trkpt lat="43.62274" lon="3.76238">
        <ele>123.6</ele>
        <time>2022-03-22T12:20:09Z</time>
      </trkpt>
      <trkpt lat="43.62275" lon="3.76214">
        <ele>124</ele>
        <time>2022-03-22T12:20:19Z</time>
      </trkpt>
      <trkpt lat="43.62254" lon="3.76211">
        <ele>123.7</ele>
        <time>2022-03-22T12:20:29Z</time>
      </trkpt>
      <trkpt lat="43.62232" lon="3.76216">
        <ele>124.9</ele>
        <time>2022-03-22T12:20:39Z</time>
      </trkpt>
      <trkpt lat="43.62217" lon="3.76214">
        <ele>126.1</ele>
        <time>2022-03-22T12:20:49Z</time>
      </trkpt>
      <trkpt lat="43.62202" lon="3.76212">
        <ele>127.9</ele>
        <time>2022-03-22T12:20:59Z</time>
      </trkpt>
      <trkpt lat="43.6219" lon="3.76206">
        <ele>129</ele>
        <time>2022-03-22T12:21:19Z</time>
      </trkpt>
      <trkpt lat="43.62183" lon="3.76219">
        <ele>131.3</ele>
        <time>2022-03-22T12:21:39Z</time>
      </trkpt>
      <trkpt lat="43.6218" lon="3.76238">
        <ele>132.9</ele>
        <time>2022-03-22T12:21:49Z</time>
      </trkpt>
      <trkpt lat="43.6217" lon="3.76248">
        <ele>135.3</ele>
        <time>2022-03-22T12:21:59Z</time>
      </trkpt>
      <trkpt lat="43.6216" lon="3.76256">
        <ele>137.5</ele>
        <time>2022-03-22T12:22:09Z</time>
      </trkpt>
      <trkpt lat="43.6215" lon="3.76266">
        <ele>139.9</ele>
        <time>2022-03-22T12:22:19Z</time>
      </trkpt>
      <trkpt lat="43.62141" lon="3.76276">
        <ele>142.4</ele>
        <time>2022-03-22T12:22:29Z</time>
      </trkpt>
      <trkpt lat="43.6213" lon="3.76277">
        <ele>144.9</ele>
        <time>2022-03-22T12:22:39Z</time>
      </trkpt>
      <trkpt lat="43.62122" lon="3.76277">
        <ele>146.6</ele>
        <time>2022-03-22T12:22:49Z</time>
      </trkpt>
      <trkpt lat="43.62113" lon="3.76284">
        <ele>149</ele>
        <time>2022-03-22T12:22:59Z</time>
      </trkpt>
      <trkpt lat="43.62108" lon="3.76285">
        <ele>150.2</ele>
        <time>2022-03-22T12:23:19Z</time>
      </trkpt>
      <trkpt lat="43.621" lon="3.76286">
        <ele>152</ele>
        <time>2022-03-22T12:23:29Z</time>
      </trkpt>
      <trkpt lat="43.62093" lon="3.76288">
        <ele>153.6</ele>
        <time>2022-03-22T12:23:39Z</time>
      </trkpt>
      <trkpt lat="43.62085" lon="3.76292">
        <ele>155.7</ele>
        <time>2022-03-22T12:23:49Z</time>
      </trkpt>
      <trkpt lat="43.62073" lon="3.763">
        <ele>156.7</ele>
        <time>2022-03-22T12:24:09Z</time>
      </trkpt>
      <trkpt lat="43.62064" lon="3.76289">
        <ele>156.2</ele>
        <time>2022-03-22T12:24:19Z</time>
      </trkpt>
      <trkpt lat="43.62049" lon="3.76268">
        <ele>154.8</ele>
        <time>2022-03-22T12:24:29Z</time>
      </trkpt>
      <trkpt lat="43.62032" lon="3.76242">
        <ele>150.2</ele>
        <time>2022-03-22T12:24:39Z</time>
      </trkpt>
      <trkpt lat="43.62011" lon="3.76226">
        <ele>143.4</ele>
        <time>2022-03-22T12:24:49Z</time>
      </trkpt>
      <trkpt lat="43.61989" lon="3.76218">
        <ele>136.1</ele>
        <time>2022-03-22T12:24:59Z</time>
      </trkpt>
      <trkpt lat="43.61971" lon="3.76219">
        <ele>130.4</ele>
        <time>2022-03-22T12:25:09Z</time>
      </trkpt>
      <trkpt lat="43.61958" lon="3.76194">
        <ele>123.3</ele>
        <time>2022-03-22T12:25:19Z</time>
      </trkpt>
      <trkpt lat="43.61947" lon="3.76179">
        <ele>117.9</ele>
        <time>2022-03-22T12:25:29Z</time>
      </trkpt>
      <trkpt lat="43.61932" lon="3.76167">
        <ele>113.4</ele>
        <time>2022-03-22T12:25:39Z</time>
      </trkpt>
      <trkpt lat="43.61925" lon="3.76135">
        <ele>109.3</ele>
        <time>2022-03-22T12:25:49Z</time>
      </trkpt>
      <trkpt lat="43.61897" lon="3.76088">
        <ele>101.3</ele>
        <time>2022-03-22T12:25:59Z</time>
      </trkpt>
      <trkpt lat="43.61875" lon="3.76048">
        <ele>94.3</ele>
        <time>2022-03-22T12:26:09Z</time>
      </trkpt>
      <trkpt lat="43.61853" lon="3.76019">
        <ele>86.6</ele>
        <time>2022-03-22T12:26:19Z</time>
      </trkpt>
      <trkpt lat="43.61874" lon="3.75992">
        <ele>85.8</ele>
        <time>2022-03-22T12:26:39Z</time>
      </trkpt>
      <trkpt lat="43.619" lon="3.75961">
        <ele>87.1</ele>
        <time>2022-03-22T12:26:59Z</time>
      </trkpt>
      <trkpt lat="43.61926" lon="3.75934">
        <ele>87.3</ele>
        <time>2022-03-22T12:27:09Z</time>
      </trkpt>
      <trkpt lat="43.61953" lon="3.759">
        <ele>84.2</ele>
        <time>2022-03-22T12:27:19Z</time>
      </trkpt>
      <trkpt lat="43.61966" lon="3.75884">
        <ele>80.9</ele>
        <time>2022-03-22T12:27:29Z</time>
      </trkpt>
      <trkpt lat="43.61984" lon="3.75888">
        <ele>80.6</ele>
        <time>2022-03-22T12:34:49Z</time>
      </trkpt>
      <trkpt lat="43.61996" lon="3.75897">
        <ele>81.5</ele>
        <time>2022-03-22T12:35:09Z</time>
      </trkpt>
      <trkpt lat="43.62016" lon="3.75903">
        <ele>82</ele>
        <time>2022-03-22T12:36:39Z</time>
      </trkpt>
      <trkpt lat="43.62025" lon="3.75902">
        <ele>82</ele>
        <time>2022-03-22T12:36:59Z</time>
      </trkpt>
      <trkpt lat="43.62041" lon="3.75901">
        <ele>82.3</ele>
        <time>2022-03-22T12:37:09Z</time>
      </trkpt>
      <trkpt lat="43.62054" lon="3.75894">
        <ele>82.2</ele>
        <time>2022-03-22T12:37:19Z</time>
      </trkpt>
      <trkpt lat="43.62068" lon="3.75883">
        <ele>82</ele>
        <time>2022-03-22T12:37:29Z</time>
      </trkpt>
      <trkpt lat="43.62087" lon="3.7587">
        <ele>83.4</ele>
        <time>2022-03-22T12:37:39Z</time>
      </trkpt>
      <trkpt lat="43.62103" lon="3.75853">
        <ele>83.8</ele>
        <time>2022-03-22T12:37:49Z</time>
      </trkpt>
      <trkpt lat="43.62122" lon="3.75837">
        <ele>84.3</ele>
        <time>2022-03-22T12:37:59Z</time>
      </trkpt>
      <trkpt lat="43.62138" lon="3.75825">
        <ele>82.7</ele>
        <time>2022-03-22T12:38:09Z</time>
      </trkpt>
      <trkpt lat="43.62152" lon="3.75801">
        <ele>84.8</ele>
        <time>2022-03-22T12:38:19Z</time>
      </trkpt>
      <trkpt lat="43.62161" lon="3.75784">
        <ele>85.9</ele>
        <time>2022-03-22T12:38:29Z</time>
      </trkpt>
      <trkpt lat="43.62175" lon="3.75763">
        <ele>86</ele>
        <time>2022-03-22T12:38:39Z</time>
      </trkpt>
      <trkpt lat="43.62178" lon="3.75733">
        <ele>86.3</ele>
        <time>2022-03-22T12:38:49Z</time>
      </trkpt>
      <trkpt lat="43.62169" lon="3.75707">
        <ele>87.5</ele>
        <time>2022-03-22T12:38:59Z</time>
      </trkpt>
      <trkpt lat="43.62158" lon="3.75684">
        <ele>87.1</ele>
        <time>2022-03-22T12:39:09Z</time>
      </trkpt>
      <trkpt lat="43.62126" lon="3.75656">
        <ele>86.4</ele>
        <time>2022-03-22T12:40:39Z</time>
      </trkpt>
      <trkpt lat="43.62116" lon="3.75637">
        <ele>89</ele>
        <time>2022-03-22T12:41:29Z</time>
      </trkpt>
      <trkpt lat="43.621" lon="3.75625">
        <ele>91.7</ele>
        <time>2022-03-22T12:41:49Z</time>
      </trkpt>
      <trkpt lat="43.6209" lon="3.75609">
        <ele>94.3</ele>
        <time>2022-03-22T12:42:09Z</time>
      </trkpt>
      <trkpt lat="43.62084" lon="3.75591">
        <ele>96.9</ele>
        <time>2022-03-22T12:42:19Z</time>
      </trkpt>
      <trkpt lat="43.62076" lon="3.75576">
        <ele>97.9</ele>
        <time>2022-03-22T12:42:29Z</time>
      </trkpt>
      <trkpt lat="43.62066" lon="3.75555">
        <ele>98.1</ele>
        <time>2022-03-22T12:42:39Z</time>
      </trkpt>
      <trkpt lat="43.62054" lon="3.75528">
        <ele>97</ele>
        <time>2022-03-22T12:42:49Z</time>
      </trkpt>
      <trkpt lat="43.62045" lon="3.75516">
        <ele>97.7</ele>
        <time>2022-03-22T12:42:59Z</time>
      </trkpt>
      <trkpt lat="43.62031" lon="3.75514">
        <ele>98.4</ele>
        <time>2022-03-22T12:43:19Z</time>
      </trkpt>
      <trkpt lat="43.62017" lon="3.75516">
        <ele>99.2</ele>
        <time>2022-03-22T12:43:29Z</time>
      </trkpt>
      <trkpt lat="43.62006" lon="3.75514">
        <ele>100.4</ele>
        <time>2022-03-22T12:43:39Z</time>
      </trkpt>
      <trkpt lat="43.61992" lon="3.75527">
        <ele>98.8</ele>
        <time>2022-03-22T12:43:49Z</time>
      </trkpt>
      <trkpt lat="43.61976" lon="3.75537">
        <ele>95.8</ele>
        <time>2022-03-22T12:43:59Z</time>
      </trkpt>
      <trkpt lat="43.61967" lon="3.75546">
        <ele>93.5</ele>
        <time>2022-03-22T12:44:09Z</time>
      </trkpt>
      <trkpt lat="43.61966" lon="3.75557">
        <ele>91.1</ele>
        <time>2022-03-22T12:44:19Z</time>
      </trkpt>
      <trkpt lat="43.61942" lon="3.75573">
        <ele>90.3</ele>
        <time>2022-03-22T12:44:29Z</time>
      </trkpt>
      <trkpt lat="43.61914" lon="3.75602">
        <ele>89.7</ele>
        <time>2022-03-22T12:44:39Z</time>
      </trkpt>
      <trkpt lat="43.61881" lon="3.75606">
        <ele>90.2</ele>
        <time>2022-03-22T12:44:49Z</time>
      </trkpt>
      <trkpt lat="43.61849" lon="3.75595">
        <ele>90.9</ele>
        <time>2022-03-22T12:44:59Z</time>
      </trkpt>
      <trkpt lat="43.61829" lon="3.75559">
        <ele>91.8</ele>
        <time>2022-03-22T12:45:09Z</time>
      </trkpt>
      <trkpt lat="43.61806" lon="3.75522">
        <ele>91.5</ele>
        <time>2022-03-22T12:45:19Z</time>
      </trkpt>
      <trkpt lat="43.61781" lon="3.75485">
        <ele>92.6</ele>
        <time>2022-03-22T12:45:29Z</time>
      </trkpt>
      <trkpt lat="43.61755" lon="3.75449">
        <ele>92.9</ele>
        <time>2022-03-22T12:45:39Z</time>
      </trkpt>
      <trkpt lat="43.61733" lon="3.75416">
        <ele>93.2</ele>
        <time>2022-03-22T12:45:49Z</time>
      </trkpt>
      <trkpt lat="43.61709" lon="3.75383">
        <ele>93.7</ele>
        <time>2022-03-22T12:45:59Z</time>
      </trkpt>
      <trkpt lat="43.61698" lon="3.75343">
        <ele>94.1</ele>
        <time>2022-03-22T12:46:09Z</time>
      </trkpt>
      <trkpt lat="43.61677" lon="3.75302">
        <ele>94</ele>
        <time>2022-03-22T12:46:19Z</time>
      </trkpt>
      <trkpt lat="43.61664" lon="3.75264">
        <ele>95</ele>
        <time>2022-03-22T12:46:29Z</time>
      </trkpt>
      <trkpt lat="43.61671" lon="3.75214">
        <ele>94.6</ele>
        <time>2022-03-22T12:46:39Z</time>
      </trkpt>
      <trkpt lat="43.61686" lon="3.75192">
        <ele>94.8</ele>
        <time>2022-03-22T12:46:49Z</time>
      </trkpt>
      <trkpt lat="43.61697" lon="3.75157">
        <ele>96.3</ele>
        <time>2022-03-22T12:46:59Z</time>
      </trkpt>
      <trkpt lat="43.6172" lon="3.75133">
        <ele>97.4</ele>
        <time>2022-03-22T12:47:09Z</time>
      </trkpt>
      <trkpt lat="43.61744" lon="3.75101">
        <ele>98</ele>
        <time>2022-03-22T12:47:19Z</time>
      </trkpt>
      <trkpt lat="43.61772" lon="3.75073">
        <ele>98.1</ele>
        <time>2022-03-22T12:47:29Z</time>
      </trkpt>
      <trkpt lat="43.61795" lon="3.75041">
        <ele>98.7</ele>
        <time>2022-03-22T12:47:39Z</time>
      </trkpt>
      <trkpt lat="43.61803" lon="3.74992">
        <ele>98.6</ele>
        <time>2022-03-22T12:47:49Z</time>
      </trkpt>
      <trkpt lat="43.61791" lon="3.74948">
        <ele>99.8</ele>
        <time>2022-03-22T12:47:59Z</time>
      </trkpt>
      <trkpt lat="43.6177" lon="3.74925">
        <ele>99.8</ele>
        <time>2022-03-22T12:48:09Z</time>
      </trkpt>
      <trkpt lat="43.61741" lon="3.74905">
        <ele>100</ele>
        <time>2022-03-22T12:48:19Z</time>
      </trkpt>
      <trkpt lat="43.61718" lon="3.74878">
        <ele>100.6</ele>
        <time>2022-03-22T12:48:29Z</time>
      </trkpt>
      <trkpt lat="43.61705" lon="3.74829">
        <ele>101.7</ele>
        <time>2022-03-22T12:48:39Z</time>
      </trkpt>
      <trkpt lat="43.61692" lon="3.74784">
        <ele>102.3</ele>
        <time>2022-03-22T12:48:49Z</time>
      </trkpt>
      <trkpt lat="43.61676" lon="3.74749">
        <ele>103</ele>
        <time>2022-03-22T12:48:59Z</time>
      </trkpt>
      <trkpt lat="43.61668" lon="3.74713">
        <ele>103</ele>
        <time>2022-03-22T12:49:09Z</time>
      </trkpt>
      <trkpt lat="43.61651" lon="3.74683">
        <ele>105.7</ele>
        <time>2022-03-22T12:49:19Z</time>
      </trkpt>
      <trkpt lat="43.6163" lon="3.74652">
        <ele>106.2</ele>
        <time>2022-03-22T12:49:29Z</time>
      </trkpt>
      <trkpt lat="43.61617" lon="3.74616">
        <ele>106.6</ele>
        <time>2022-03-22T12:49:39Z</time>
      </trkpt>
      <trkpt lat="43.61604" lon="3.74582">
        <ele>106.8</ele>
        <time>2022-03-22T12:49:49Z</time>
      </trkpt>
      <trkpt lat="43.61606" lon="3.74555">
        <ele>105.7</ele>
        <time>2022-03-22T12:49:59Z</time>
      </trkpt>
      <trkpt lat="43.61623" lon="3.74538">
        <ele>104.5</ele>
        <time>2022-03-22T12:50:09Z</time>
      </trkpt>
      <trkpt lat="43.61639" lon="3.74544">
        <ele>104.4</ele>
        <time>2022-03-22T12:50:19Z</time>
      </trkpt>
      <trkpt lat="43.61654" lon="3.74549">
        <ele>107.9</ele>
        <time>2022-03-22T12:50:29Z</time>
      </trkpt>
      <trkpt lat="43.61665" lon="3.74561">
        <ele>108.7</ele>
        <time>2022-03-22T12:50:39Z</time>
      </trkpt>
      <trkpt lat="43.61675" lon="3.74574">
        <ele>109.2</ele>
        <time>2022-03-22T12:50:49Z</time>
      </trkpt>
      <trkpt lat="43.61691" lon="3.74587">
        <ele>111.4</ele>
        <time>2022-03-22T12:50:59Z</time>
      </trkpt>
      <trkpt lat="43.61704" lon="3.74598">
        <ele>112.6</ele>
        <time>2022-03-22T12:51:09Z</time>
      </trkpt>
      <trkpt lat="43.61718" lon="3.74609">
        <ele>113.5</ele>
        <time>2022-03-22T12:51:19Z</time>
      </trkpt>
      <trkpt lat="43.61737" lon="3.74629">
        <ele>112.9</ele>
        <time>2022-03-22T12:51:29Z</time>
      </trkpt>
      <trkpt lat="43.61753" lon="3.74638">
        <ele>113.2</ele>
        <time>2022-03-22T12:51:39Z</time>
      </trkpt>
      <trkpt lat="43.61771" lon="3.74633">
        <ele>114.1</ele>
        <time>2022-03-22T12:51:49Z</time>
      </trkpt>
      <trkpt lat="43.6179" lon="3.74627">
        <ele>114.5</ele>
        <time>2022-03-22T12:51:59Z</time>
      </trkpt>
      <trkpt lat="43.6181" lon="3.74619">
        <ele>114.7</ele>
        <time>2022-03-22T12:52:09Z</time>
      </trkpt>
      <trkpt lat="43.61807" lon="3.74602">
        <ele>116.9</ele>
        <time>2022-03-22T12:52:19Z</time>
      </trkpt>
      <trkpt lat="43.61798" lon="3.7457">
        <ele>121.7</ele>
        <time>2022-03-22T12:52:49Z</time>
      </trkpt>
      <trkpt lat="43.61791" lon="3.74558">
        <ele>124.3</ele>
        <time>2022-03-22T12:53:09Z</time>
      </trkpt>
      <trkpt lat="43.61787" lon="3.74547">
        <ele>126.5</ele>
        <time>2022-03-22T12:53:19Z</time>
      </trkpt>
      <trkpt lat="43.61777" lon="3.74539">
        <ele>129.5</ele>
        <time>2022-03-22T12:53:29Z</time>
      </trkpt>
      <trkpt lat="43.61762" lon="3.74534">
        <ele>131.7</ele>
        <time>2022-03-22T12:53:49Z</time>
      </trkpt>
      <trkpt lat="43.61746" lon="3.74532">
        <ele>132.9</ele>
        <time>2022-03-22T12:54:09Z</time>
      </trkpt>
      <trkpt lat="43.61742" lon="3.74517">
        <ele>135</ele>
        <time>2022-03-22T12:54:19Z</time>
      </trkpt>
      <trkpt lat="43.61742" lon="3.745">
        <ele>137.4</ele>
        <time>2022-03-22T12:54:29Z</time>
      </trkpt>
      <trkpt lat="43.61742" lon="3.74483">
        <ele>139.1</ele>
        <time>2022-03-22T12:54:39Z</time>
      </trkpt>
      <trkpt lat="43.61741" lon="3.74466">
        <ele>140.3</ele>
        <time>2022-03-22T12:54:49Z</time>
      </trkpt>
      <trkpt lat="43.61741" lon="3.74449">
        <ele>141.1</ele>
        <time>2022-03-22T12:54:59Z</time>
      </trkpt>
      <trkpt lat="43.61742" lon="3.74431">
        <ele>141.9</ele>
        <time>2022-03-22T12:55:09Z</time>
      </trkpt>
      <trkpt lat="43.61742" lon="3.74407">
        <ele>142.8</ele>
        <time>2022-03-22T12:55:19Z</time>
      </trkpt>
      <trkpt lat="43.61745" lon="3.74385">
        <ele>143.9</ele>
        <time>2022-03-22T12:55:29Z</time>
      </trkpt>
      <trkpt lat="43.61748" lon="3.74366">
        <ele>145.5</ele>
        <time>2022-03-22T12:55:39Z</time>
      </trkpt>
      <trkpt lat="43.61752" lon="3.74347">
        <ele>146.8</ele>
        <time>2022-03-22T12:55:49Z</time>
      </trkpt>
      <trkpt lat="43.61754" lon="3.74325">
        <ele>148.2</ele>
        <time>2022-03-22T12:55:59Z</time>
      </trkpt>
      <trkpt lat="43.6177" lon="3.74309">
        <ele>148.8</ele>
        <time>2022-03-22T12:56:09Z</time>
      </trkpt>
      <trkpt lat="43.61784" lon="3.74291">
        <ele>150.1</ele>
        <time>2022-03-22T12:56:19Z</time>
      </trkpt>
      <trkpt lat="43.61797" lon="3.7427">
        <ele>151.8</ele>
        <time>2022-03-22T12:56:29Z</time>
      </trkpt>
      <trkpt lat="43.61811" lon="3.74243">
        <ele>152</ele>
        <time>2022-03-22T12:56:39Z</time>
      </trkpt>
      <trkpt lat="43.61827" lon="3.74208">
        <ele>151.8</ele>
        <time>2022-03-22T12:56:49Z</time>
      </trkpt>
      <trkpt lat="43.61848" lon="3.74169">
        <ele>150.6</ele>
        <time>2022-03-22T12:56:59Z</time>
      </trkpt>
      <trkpt lat="43.61872" lon="3.74147">
        <ele>149.7</ele>
        <time>2022-03-22T12:57:09Z</time>
      </trkpt>
      <trkpt lat="43.61877" lon="3.74112">
        <ele>149</ele>
        <time>2022-03-22T12:57:19Z</time>
      </trkpt>
      <trkpt lat="43.61871" lon="3.7409">
        <ele>150.2</ele>
        <time>2022-03-22T12:57:29Z</time>
      </trkpt>
      <trkpt lat="43.61854" lon="3.74085">
        <ele>150.1</ele>
        <time>2022-03-22T12:57:39Z</time>
      </trkpt>
      <trkpt lat="43.6185" lon="3.74081">
        <ele>150</ele>
        <time>2022-03-22T12:57:49Z</time>
      </trkpt>
      <trkpt lat="43.61829" lon="3.74054">
        <ele>149.3</ele>
        <time>2022-03-22T12:57:59Z</time>
      </trkpt>
      <trkpt lat="43.6181" lon="3.74024">
        <ele>150.4</ele>
        <time>2022-03-22T12:58:09Z</time>
      </trkpt>
      <trkpt lat="43.618" lon="3.7401">
        <ele>149.6</ele>
        <time>2022-03-22T12:58:19Z</time>
      </trkpt>
      <trkpt lat="43.61773" lon="3.73986">
        <ele>148.6</ele>
        <time>2022-03-22T12:58:39Z</time>
      </trkpt>
      <trkpt lat="43.61754" lon="3.73946">
        <ele>148.8</ele>
        <time>2022-03-22T12:58:49Z</time>
      </trkpt>
      <trkpt lat="43.61762" lon="3.73898">
        <ele>150.1</ele>
        <time>2022-03-22T12:58:59Z</time>
      </trkpt>
      <trkpt lat="43.6176" lon="3.7385">
        <ele>149.6</ele>
        <time>2022-03-22T12:59:09Z</time>
      </trkpt>
      <trkpt lat="43.61746" lon="3.73809">
        <ele>148</ele>
        <time>2022-03-22T12:59:19Z</time>
      </trkpt>
      <trkpt lat="43.61728" lon="3.73764">
        <ele>147.8</ele>
        <time>2022-03-22T12:59:29Z</time>
      </trkpt>
      <trkpt lat="43.61739" lon="3.73711">
        <ele>148.1</ele>
        <time>2022-03-22T12:59:39Z</time>
      </trkpt>
      <trkpt lat="43.61728" lon="3.73659">
        <ele>144.2</ele>
        <time>2022-03-22T12:59:49Z</time>
      </trkpt>
      <trkpt lat="43.61695" lon="3.73643">
        <ele>141.3</ele>
        <time>2022-03-22T12:59:59Z</time>
      </trkpt>
      <trkpt lat="43.61657" lon="3.7363">
        <ele>142.4</ele>
        <time>2022-03-22T13:00:09Z</time>
      </trkpt>
      <trkpt lat="43.61623" lon="3.73617">
        <ele>144.3</ele>
        <time>2022-03-22T13:00:19Z</time>
      </trkpt>
      <trkpt lat="43.61597" lon="3.73602">
        <ele>144.4</ele>
        <time>2022-03-22T13:00:29Z</time>
      </trkpt>
      <trkpt lat="43.61586" lon="3.7362">
        <ele>139.7</ele>
        <time>2022-03-22T13:00:39Z</time>
      </trkpt>
      <trkpt lat="43.61571" lon="3.73637">
        <ele>134.1</ele>
        <time>2022-03-22T13:00:49Z</time>
      </trkpt>
      <trkpt lat="43.61567" lon="3.73675">
        <ele>126.8</ele>
        <time>2022-03-22T13:00:59Z</time>
      </trkpt>
      <trkpt lat="43.6156" lon="3.73727">
        <ele>121.6</ele>
        <time>2022-03-22T13:01:09Z</time>
      </trkpt>
      <trkpt lat="43.61546" lon="3.73787">
        <ele>120.6</ele>
        <time>2022-03-22T13:01:19Z</time>
      </trkpt>
      <trkpt lat="43.61519" lon="3.73837">
        <ele>115.3</ele>
        <time>2022-03-22T13:01:29Z</time>
      </trkpt>
      <trkpt lat="43.61494" lon="3.73819">
        <ele>116.4</ele>
        <time>2022-03-22T13:01:39Z</time>
      </trkpt>
      <trkpt lat="43.6148" lon="3.73805">
        <ele>118.2</ele>
        <time>2022-03-22T13:01:49Z</time>
      </trkpt>
      <trkpt lat="43.61472" lon="3.73785">
        <ele>120.5</ele>
        <time>2022-03-22T13:01:59Z</time>
      </trkpt>
      <trkpt lat="43.6147" lon="3.73761">
        <ele>121.1</ele>
        <time>2022-03-22T13:02:09Z</time>
      </trkpt>
      <trkpt lat="43.61469" lon="3.7374">
        <ele>121.6</ele>
        <time>2022-03-22T13:02:19Z</time>
      </trkpt>
      <trkpt lat="43.61466" lon="3.73712">
        <ele>122.8</ele>
        <time>2022-03-22T13:02:29Z</time>
      </trkpt>
      <trkpt lat="43.61458" lon="3.73684">
        <ele>123.9</ele>
        <time>2022-03-22T13:02:39Z</time>
      </trkpt>
      <trkpt lat="43.6145" lon="3.7367">
        <ele>125</ele>
        <time>2022-03-22T13:02:49Z</time>
      </trkpt>
      <trkpt lat="43.61439" lon="3.73665">
        <ele>127</ele>
        <time>2022-03-22T13:02:59Z</time>
      </trkpt>
      <trkpt lat="43.61429" lon="3.73672">
        <ele>128.5</ele>
        <time>2022-03-22T13:03:09Z</time>
      </trkpt>
      <trkpt lat="43.61418" lon="3.73678">
        <ele>129.6</ele>
        <time>2022-03-22T13:03:19Z</time>
      </trkpt>
      <trkpt lat="43.61405" lon="3.73685">
        <ele>131.4</ele>
        <time>2022-03-22T13:03:29Z</time>
      </trkpt>
      <trkpt lat="43.61392" lon="3.7369">
        <ele>133.7</ele>
        <time>2022-03-22T13:03:39Z</time>
      </trkpt>
      <trkpt lat="43.61381" lon="3.73696">
        <ele>134.9</ele>
        <time>2022-03-22T13:03:49Z</time>
      </trkpt>
      <trkpt lat="43.61368" lon="3.73703">
        <ele>135.8</ele>
        <time>2022-03-22T13:03:59Z</time>
      </trkpt>
      <trkpt lat="43.61354" lon="3.73704">
        <ele>137.2</ele>
        <time>2022-03-22T13:04:09Z</time>
      </trkpt>
      <trkpt lat="43.6134" lon="3.73705">
        <ele>138.2</ele>
        <time>2022-03-22T13:04:19Z</time>
      </trkpt>
      <trkpt lat="43.61326" lon="3.73707">
        <ele>139.1</ele>
        <time>2022-03-22T13:04:29Z</time>
      </trkpt>
      <trkpt lat="43.6131" lon="3.73711">
        <ele>139.9</ele>
        <time>2022-03-22T13:04:39Z</time>
      </trkpt>
      <trkpt lat="43.61296" lon="3.73717">
        <ele>140.7</ele>
        <time>2022-03-22T13:04:49Z</time>
      </trkpt>
      <trkpt lat="43.6128" lon="3.73723">
        <ele>142.5</ele>
        <time>2022-03-22T13:04:59Z</time>
      </trkpt>
      <trkpt lat="43.61267" lon="3.73719">
        <ele>143.8</ele>
        <time>2022-03-22T13:05:09Z</time>
      </trkpt>
      <trkpt lat="43.61252" lon="3.73713">
        <ele>145.5</ele>
        <time>2022-03-22T13:05:19Z</time>
      </trkpt>
      <trkpt lat="43.61236" lon="3.73707">
        <ele>147.2</ele>
        <time>2022-03-22T13:05:29Z</time>
      </trkpt>
      <trkpt lat="43.6122" lon="3.737">
        <ele>149.2</ele>
        <time>2022-03-22T13:05:39Z</time>
      </trkpt>
      <trkpt lat="43.61207" lon="3.73694">
        <ele>151.1</ele>
        <time>2022-03-22T13:05:49Z</time>
      </trkpt>
      <trkpt lat="43.61194" lon="3.73691">
        <ele>152.2</ele>
        <time>2022-03-22T13:05:59Z</time>
      </trkpt>
      <trkpt lat="43.61182" lon="3.73686">
        <ele>153.2</ele>
        <time>2022-03-22T13:06:09Z</time>
      </trkpt>
      <trkpt lat="43.61183" lon="3.73669">
        <ele>153.7</ele>
        <time>2022-03-22T13:06:19Z</time>
      </trkpt>
      <trkpt lat="43.61194" lon="3.73627">
        <ele>150.8</ele>
        <time>2022-03-22T13:06:29Z</time>
      </trkpt>
      <trkpt lat="43.61181" lon="3.736">
        <ele>150.2</ele>
        <time>2022-03-22T13:06:39Z</time>
      </trkpt>
      <trkpt lat="43.61178" lon="3.73555">
        <ele>149.7</ele>
        <time>2022-03-22T13:06:49Z</time>
      </trkpt>
      <trkpt lat="43.61174" lon="3.73514">
        <ele>148.7</ele>
        <time>2022-03-22T13:06:59Z</time>
      </trkpt>
      <trkpt lat="43.61168" lon="3.73482">
        <ele>149.1</ele>
        <time>2022-03-22T13:07:09Z</time>
      </trkpt>
      <trkpt lat="43.61164" lon="3.73462">
        <ele>149.6</ele>
        <time>2022-03-22T13:07:19Z</time>
      </trkpt>
      <trkpt lat="43.61165" lon="3.7344">
        <ele>149.8</ele>
        <time>2022-03-22T13:07:29Z</time>
      </trkpt>
      <trkpt lat="43.61161" lon="3.73422">
        <ele>152.4</ele>
        <time>2022-03-22T13:07:39Z</time>
      </trkpt>
      <trkpt lat="43.61154" lon="3.7341">
        <ele>155.3</ele>
        <time>2022-03-22T13:07:59Z</time>
      </trkpt>
      <trkpt lat="43.61144" lon="3.73398">
        <ele>159</ele>
        <time>2022-03-22T13:08:29Z</time>
      </trkpt>
      <trkpt lat="43.6113" lon="3.73388">
        <ele>163.6</ele>
        <time>2022-03-22T13:08:59Z</time>
      </trkpt>
      <trkpt lat="43.61123" lon="3.73378">
        <ele>165.8</ele>
        <time>2022-03-22T13:09:39Z</time>
      </trkpt>
      <trkpt lat="43.61117" lon="3.73362">
        <ele>168.1</ele>
        <time>2022-03-22T13:09:59Z</time>
      </trkpt>
      <trkpt lat="43.61111" lon="3.73345">
        <ele>170</ele>
        <time>2022-03-22T13:10:09Z</time>
      </trkpt>
      <trkpt lat="43.61104" lon="3.73328">
        <ele>171.4</ele>
        <time>2022-03-22T13:10:19Z</time>
      </trkpt>
      <trkpt lat="43.61099" lon="3.73313">
        <ele>171.8</ele>
        <time>2022-03-22T13:10:29Z</time>
      </trkpt>
      <trkpt lat="43.61089" lon="3.73296">
        <ele>174</ele>
        <time>2022-03-22T13:10:39Z</time>
      </trkpt>
      <trkpt lat="43.61083" lon="3.73279">
        <ele>174.2</ele>
        <time>2022-03-22T13:10:49Z</time>
      </trkpt>
      <trkpt lat="43.61078" lon="3.7326">
        <ele>175.9</ele>
        <time>2022-03-22T13:10:59Z</time>
      </trkpt>
      <trkpt lat="43.6108" lon="3.73241">
        <ele>176.7</ele>
        <time>2022-03-22T13:11:09Z</time>
      </trkpt>
      <trkpt lat="43.61084" lon="3.73221">
        <ele>178.2</ele>
        <time>2022-03-22T13:11:19Z</time>
      </trkpt>
      <trkpt lat="43.61089" lon="3.73205">
        <ele>181.1</ele>
        <time>2022-03-22T13:11:29Z</time>
      </trkpt>
      <trkpt lat="43.61096" lon="3.7319">
        <ele>183</ele>
        <time>2022-03-22T13:11:39Z</time>
      </trkpt>
      <trkpt lat="43.61105" lon="3.73174">
        <ele>184.4</ele>
        <time>2022-03-22T13:11:49Z</time>
      </trkpt>
      <trkpt lat="43.61112" lon="3.7316">
        <ele>185.6</ele>
        <time>2022-03-22T13:11:59Z</time>
      </trkpt>
      <trkpt lat="43.61117" lon="3.73143">
        <ele>186.7</ele>
        <time>2022-03-22T13:12:09Z</time>
      </trkpt>
      <trkpt lat="43.61118" lon="3.73122">
        <ele>186.9</ele>
        <time>2022-03-22T13:12:19Z</time>
      </trkpt>
      <trkpt lat="43.61107" lon="3.73081">
        <ele>185.2</ele>
        <time>2022-03-22T13:12:29Z</time>
      </trkpt>
      <trkpt lat="43.61091" lon="3.73064">
        <ele>185.4</ele>
        <time>2022-03-22T13:12:39Z</time>
      </trkpt>
      <trkpt lat="43.61076" lon="3.73042">
        <ele>184.5</ele>
        <time>2022-03-22T13:12:49Z</time>
      </trkpt>
      <trkpt lat="43.6106" lon="3.73022">
        <ele>184.7</ele>
        <time>2022-03-22T13:12:59Z</time>
      </trkpt>
      <trkpt lat="43.61046" lon="3.73">
        <ele>183.8</ele>
        <time>2022-03-22T13:13:09Z</time>
      </trkpt>
      <trkpt lat="43.61029" lon="3.72981">
        <ele>184.6</ele>
        <time>2022-03-22T13:13:19Z</time>
      </trkpt>
      <trkpt lat="43.61013" lon="3.72969">
        <ele>185.6</ele>
        <time>2022-03-22T13:13:29Z</time>
      </trkpt>
      <trkpt lat="43.60994" lon="3.72961">
        <ele>187</ele>
        <time>2022-03-22T13:13:39Z</time>
      </trkpt>
      <trkpt lat="43.60975" lon="3.72959">
        <ele>187.9</ele>
        <time>2022-03-22T13:13:49Z</time>
      </trkpt>
      <trkpt lat="43.60959" lon="3.72968">
        <ele>188</ele>
        <time>2022-03-22T13:13:59Z</time>
      </trkpt>
      <trkpt lat="43.60949" lon="3.7297">
        <ele>187.2</ele>
        <time>2022-03-22T13:14:09Z</time>
      </trkpt>
      <trkpt lat="43.60944" lon="3.72959">
        <ele>185</ele>
        <time>2022-03-22T13:14:29Z</time>
      </trkpt>
      <trkpt lat="43.6092" lon="3.72939">
        <ele>176.9</ele>
        <time>2022-03-22T13:14:49Z</time>
      </trkpt>
      <trkpt lat="43.60906" lon="3.72907">
        <ele>170.2</ele>
        <time>2022-03-22T13:14:59Z</time>
      </trkpt>
      <trkpt lat="43.60891" lon="3.7288">
        <ele>164.6</ele>
        <time>2022-03-22T13:15:09Z</time>
      </trkpt>
      <trkpt lat="43.60889" lon="3.72846">
        <ele>159.9</ele>
        <time>2022-03-22T13:15:19Z</time>
      </trkpt>
      <trkpt lat="43.60888" lon="3.72826">
        <ele>157.9</ele>
        <time>2022-03-22T13:15:29Z</time>
      </trkpt>
      <trkpt lat="43.60873" lon="3.72802">
        <ele>155.3</ele>
        <time>2022-03-22T13:15:39Z</time>
      </trkpt>
      <trkpt lat="43.60846" lon="3.72784">
        <ele>154.7</ele>
        <time>2022-03-22T13:15:49Z</time>
      </trkpt>
      <trkpt lat="43.60832" lon="3.72763">
        <ele>154.5</ele>
        <time>2022-03-22T13:15:59Z</time>
      </trkpt>
      <trkpt lat="43.60825" lon="3.72732">
        <ele>154.9</ele>
        <time>2022-03-22T13:16:09Z</time>
      </trkpt>
      <trkpt lat="43.60819" lon="3.72702">
        <ele>156.3</ele>
        <time>2022-03-22T13:16:19Z</time>
      </trkpt>
      <trkpt lat="43.60814" lon="3.72673">
        <ele>157.6</ele>
        <time>2022-03-22T13:16:29Z</time>
      </trkpt>
      <trkpt lat="43.60812" lon="3.72644">
        <ele>158.3</ele>
        <time>2022-03-22T13:16:39Z</time>
      </trkpt>
      <trkpt lat="43.60806" lon="3.72617">
        <ele>159</ele>
        <time>2022-03-22T13:16:49Z</time>
      </trkpt>
      <trkpt lat="43.60802" lon="3.72593">
        <ele>159.6</ele>
        <time>2022-03-22T13:16:59Z</time>
      </trkpt>
      <trkpt lat="43.60792" lon="3.72573">
        <ele>161.6</ele>
        <time>2022-03-22T13:17:09Z</time>
      </trkpt>
      <trkpt lat="43.60786" lon="3.72551">
        <ele>162.7</ele>
        <time>2022-03-22T13:17:19Z</time>
      </trkpt>
      <trkpt lat="43.60778" lon="3.72528">
        <ele>163</ele>
        <time>2022-03-22T13:17:29Z</time>
      </trkpt>
      <trkpt lat="43.60772" lon="3.72503">
        <ele>163.9</ele>
        <time>2022-03-22T13:17:39Z</time>
      </trkpt>
      <trkpt lat="43.60766" lon="3.7248">
        <ele>164.7</ele>
        <time>2022-03-22T13:17:49Z</time>
      </trkpt>
      <trkpt lat="43.60759" lon="3.72458">
        <ele>165.9</ele>
        <time>2022-03-22T13:17:59Z</time>
      </trkpt>
      <trkpt lat="43.60753" lon="3.72435">
        <ele>166.7</ele>
        <time>2022-03-22T13:18:09Z</time>
      </trkpt>
      <trkpt lat="43.60746" lon="3.72412">
        <ele>167.7</ele>
        <time>2022-03-22T13:18:19Z</time>
      </trkpt>
      <trkpt lat="43.60738" lon="3.72394">
        <ele>169.5</ele>
        <time>2022-03-22T13:18:29Z</time>
      </trkpt>
      <trkpt lat="43.6073" lon="3.72377">
        <ele>171.4</ele>
        <time>2022-03-22T13:18:39Z</time>
      </trkpt>
      <trkpt lat="43.60723" lon="3.72361">
        <ele>172.9</ele>
        <time>2022-03-22T13:18:49Z</time>
      </trkpt>
      <trkpt lat="43.60715" lon="3.7235">
        <ele>174.3</ele>
        <time>2022-03-22T13:18:59Z</time>
      </trkpt>
      <trkpt lat="43.60705" lon="3.72335">
        <ele>175.8</ele>
        <time>2022-03-22T13:19:09Z</time>
      </trkpt>
      <trkpt lat="43.60698" lon="3.72314">
        <ele>176.7</ele>
        <time>2022-03-22T13:19:19Z</time>
      </trkpt>
      <trkpt lat="43.60701" lon="3.72292">
        <ele>176.9</ele>
        <time>2022-03-22T13:19:29Z</time>
      </trkpt>
      <trkpt lat="43.60706" lon="3.72275">
        <ele>177.3</ele>
        <time>2022-03-22T13:19:39Z</time>
      </trkpt>
      <trkpt lat="43.60716" lon="3.72258">
        <ele>178.4</ele>
        <time>2022-03-22T13:19:49Z</time>
      </trkpt>
      <trkpt lat="43.60717" lon="3.72236">
        <ele>179.2</ele>
        <time>2022-03-22T13:19:59Z</time>
      </trkpt>
      <trkpt lat="43.6072" lon="3.72214">
        <ele>180.7</ele>
        <time>2022-03-22T13:20:09Z</time>
      </trkpt>
      <trkpt lat="43.6072" lon="3.72194">
        <ele>181.4</ele>
        <time>2022-03-22T13:20:19Z</time>
      </trkpt>
      <trkpt lat="43.60719" lon="3.72175">
        <ele>183.1</ele>
        <time>2022-03-22T13:20:29Z</time>
      </trkpt>
      <trkpt lat="43.60717" lon="3.72157">
        <ele>184.1</ele>
        <time>2022-03-22T13:21:09Z</time>
      </trkpt>
      <trkpt lat="43.60714" lon="3.7214">
        <ele>184.5</ele>
        <time>2022-03-22T13:21:29Z</time>
      </trkpt>
      <trkpt lat="43.60714" lon="3.72122">
        <ele>186.7</ele>
        <time>2022-03-22T13:21:39Z</time>
      </trkpt>
      <trkpt lat="43.60716" lon="3.72101">
        <ele>189</ele>
        <time>2022-03-22T13:21:49Z</time>
      </trkpt>
      <trkpt lat="43.60717" lon="3.7208">
        <ele>190</ele>
        <time>2022-03-22T13:21:59Z</time>
      </trkpt>
      <trkpt lat="43.60719" lon="3.7206">
        <ele>190.9</ele>
        <time>2022-03-22T13:22:09Z</time>
      </trkpt>
      <trkpt lat="43.60719" lon="3.72043">
        <ele>192</ele>
        <time>2022-03-22T13:22:19Z</time>
      </trkpt>
      <trkpt lat="43.60717" lon="3.72024">
        <ele>193.7</ele>
        <time>2022-03-22T13:22:29Z</time>
      </trkpt>
      <trkpt lat="43.60708" lon="3.7201">
        <ele>195.1</ele>
        <time>2022-03-22T13:22:39Z</time>
      </trkpt>
      <trkpt lat="43.60701" lon="3.71999">
        <ele>196.4</ele>
        <time>2022-03-22T13:22:49Z</time>
      </trkpt>
      <trkpt lat="43.60693" lon="3.71988">
        <ele>197.4</ele>
        <time>2022-03-22T13:22:59Z</time>
      </trkpt>
      <trkpt lat="43.60686" lon="3.71977">
        <ele>199.1</ele>
        <time>2022-03-22T13:23:09Z</time>
      </trkpt>
      <trkpt lat="43.6068" lon="3.71962">
        <ele>200.9</ele>
        <time>2022-03-22T13:23:19Z</time>
      </trkpt>
      <trkpt lat="43.60677" lon="3.71945">
        <ele>203</ele>
        <time>2022-03-22T13:23:29Z</time>
      </trkpt>
      <trkpt lat="43.60675" lon="3.71927">
        <ele>204.8</ele>
        <time>2022-03-22T13:23:39Z</time>
      </trkpt>
      <trkpt lat="43.60671" lon="3.71907">
        <ele>205.8</ele>
        <time>2022-03-22T13:23:49Z</time>
      </trkpt>
      <trkpt lat="43.60667" lon="3.71887">
        <ele>206</ele>
        <time>2022-03-22T13:23:59Z</time>
      </trkpt>
      <trkpt lat="43.60663" lon="3.71857">
        <ele>204.7</ele>
        <time>2022-03-22T13:24:09Z</time>
      </trkpt>
      <trkpt lat="43.6064" lon="3.71825">
        <ele>203.1</ele>
        <time>2022-03-22T13:24:19Z</time>
      </trkpt>
      <trkpt lat="43.60623" lon="3.71819">
        <ele>203.3</ele>
        <time>2022-03-22T13:24:29Z</time>
      </trkpt>
      <trkpt lat="43.6061" lon="3.71822">
        <ele>204</ele>
        <time>2022-03-22T13:24:39Z</time>
      </trkpt>
      <trkpt lat="43.60592" lon="3.7182">
        <ele>204.3</ele>
        <time>2022-03-22T13:24:49Z</time>
      </trkpt>
      <trkpt lat="43.60576" lon="3.71815">
        <ele>204.8</ele>
        <time>2022-03-22T13:24:59Z</time>
      </trkpt>
      <trkpt lat="43.60558" lon="3.71808">
        <ele>205.7</ele>
        <time>2022-03-22T13:25:09Z</time>
      </trkpt>
      <trkpt lat="43.60545" lon="3.71798">
        <ele>207.6</ele>
        <time>2022-03-22T13:25:19Z</time>
      </trkpt>
      <trkpt lat="43.60532" lon="3.7179">
        <ele>209.4</ele>
        <time>2022-03-22T13:25:29Z</time>
      </trkpt>
      <trkpt lat="43.60518" lon="3.71785">
        <ele>210.6</ele>
        <time>2022-03-22T13:25:39Z</time>
      </trkpt>
      <trkpt lat="43.60504" lon="3.71778">
        <ele>212.7</ele>
        <time>2022-03-22T13:25:49Z</time>
      </trkpt>
      <trkpt lat="43.6049" lon="3.71775">
        <ele>214.1</ele>
        <time>2022-03-22T13:25:59Z</time>
      </trkpt>
      <trkpt lat="43.60479" lon="3.7177">
        <ele>215.6</ele>
        <time>2022-03-22T13:26:09Z</time>
      </trkpt>
      <trkpt lat="43.6048" lon="3.71762">
        <ele>216.6</ele>
        <time>2022-03-22T13:26:19Z</time>
      </trkpt>
      <trkpt lat="43.60494" lon="3.71749">
        <ele>216.8</ele>
        <time>2022-03-22T13:26:29Z</time>
      </trkpt>
      <trkpt lat="43.60498" lon="3.71732">
        <ele>218.2</ele>
        <time>2022-03-22T13:26:39Z</time>
      </trkpt>
      <trkpt lat="43.60502" lon="3.71711">
        <ele>219.1</ele>
        <time>2022-03-22T13:26:49Z</time>
      </trkpt>
      <trkpt lat="43.60506" lon="3.71689">
        <ele>219.5</ele>
        <time>2022-03-22T13:26:59Z</time>
      </trkpt>
      <trkpt lat="43.6051" lon="3.71667">
        <ele>220.5</ele>
        <time>2022-03-22T13:27:09Z</time>
      </trkpt>
      <trkpt lat="43.60514" lon="3.71644">
        <ele>221.6</ele>
        <time>2022-03-22T13:27:19Z</time>
      </trkpt>
      <trkpt lat="43.60509" lon="3.71624">
        <ele>222.9</ele>
        <time>2022-03-22T13:27:29Z</time>
      </trkpt>
      <trkpt lat="43.60505" lon="3.71601">
        <ele>223.4</ele>
        <time>2022-03-22T13:27:39Z</time>
      </trkpt>
      <trkpt lat="43.60504" lon="3.71576">
        <ele>222.9</ele>
        <time>2022-03-22T13:27:49Z</time>
      </trkpt>
      <trkpt lat="43.60482" lon="3.71568">
        <ele>223.9</ele>
        <time>2022-03-22T13:34:29Z</time>
      </trkpt>
      <trkpt lat="43.60466" lon="3.71566">
        <ele>224.7</ele>
        <time>2022-03-22T13:34:49Z</time>
      </trkpt>
      <trkpt lat="43.60449" lon="3.71565">
        <ele>225.7</ele>
        <time>2022-03-22T13:34:59Z</time>
      </trkpt>
      <trkpt lat="43.60428" lon="3.71566">
        <ele>224.8</ele>
        <time>2022-03-22T13:35:09Z</time>
      </trkpt>
      <trkpt lat="43.60401" lon="3.71568">
        <ele>222.3</ele>
        <time>2022-03-22T13:35:19Z</time>
      </trkpt>
      <trkpt lat="43.60374" lon="3.71572">
        <ele>218.1</ele>
        <time>2022-03-22T13:35:29Z</time>
      </trkpt>
      <trkpt lat="43.60342" lon="3.71584">
        <ele>211.9</ele>
        <time>2022-03-22T13:35:39Z</time>
      </trkpt>
      <trkpt lat="43.60307" lon="3.716">
        <ele>207.6</ele>
        <time>2022-03-22T13:35:49Z</time>
      </trkpt>
      <trkpt lat="43.6028" lon="3.71613">
        <ele>207.4</ele>
        <time>2022-03-22T13:35:59Z</time>
      </trkpt>
      <trkpt lat="43.60247" lon="3.71613">
        <ele>204.7</ele>
        <time>2022-03-22T13:36:09Z</time>
      </trkpt>
      <trkpt lat="43.60211" lon="3.71606">
        <ele>198.6</ele>
        <time>2022-03-22T13:36:19Z</time>
      </trkpt>
      <trkpt lat="43.60183" lon="3.71608">
        <ele>192.5</ele>
        <time>2022-03-22T13:36:29Z</time>
      </trkpt>
      <trkpt lat="43.60155" lon="3.71608">
        <ele>184.9</ele>
        <time>2022-03-22T13:36:39Z</time>
      </trkpt>
      <trkpt lat="43.60124" lon="3.71611">
        <ele>176.7</ele>
        <time>2022-03-22T13:36:49Z</time>
      </trkpt>
      <trkpt lat="43.60098" lon="3.71612">
        <ele>173.5</ele>
        <time>2022-03-22T13:36:59Z</time>
      </trkpt>
      <trkpt lat="43.60089" lon="3.7161">
        <ele>173.8</ele>
        <time>2022-03-22T13:37:09Z</time>
      </trkpt>
      <trkpt lat="43.60081" lon="3.71611">
        <ele>174.6</ele>
        <time>2022-03-22T13:37:19Z</time>
      </trkpt>
      <trkpt lat="43.60074" lon="3.71611">
        <ele>176.4</ele>
        <time>2022-03-22T13:37:29Z</time>
      </trkpt>
      <trkpt lat="43.6006" lon="3.71612">
        <ele>179.9</ele>
        <time>2022-03-22T13:37:49Z</time>
      </trkpt>
      <trkpt lat="43.6004" lon="3.71614">
        <ele>184.8</ele>
        <time>2022-03-22T13:38:29Z</time>
      </trkpt>
      <trkpt lat="43.60033" lon="3.71614">
        <ele>186.6</ele>
        <time>2022-03-22T13:38:49Z</time>
      </trkpt>
      <trkpt lat="43.60026" lon="3.71616">
        <ele>188.2</ele>
        <time>2022-03-22T13:38:59Z</time>
      </trkpt>
      <trkpt lat="43.60019" lon="3.71621">
        <ele>189.3</ele>
        <time>2022-03-22T13:39:09Z</time>
      </trkpt>
      <trkpt lat="43.60006" lon="3.71631">
        <ele>191.8</ele>
        <time>2022-03-22T13:39:19Z</time>
      </trkpt>
      <trkpt lat="43.59991" lon="3.71615">
        <ele>193.1</ele>
        <time>2022-03-22T13:39:49Z</time>
      </trkpt>
      <trkpt lat="43.59978" lon="3.71601">
        <ele>192.5</ele>
        <time>2022-03-22T13:40:09Z</time>
      </trkpt>
      <trkpt lat="43.5996" lon="3.71588">
        <ele>188.8</ele>
        <time>2022-03-22T13:40:19Z</time>
      </trkpt>
      <trkpt lat="43.59953" lon="3.71567">
        <ele>186.2</ele>
        <time>2022-03-22T13:40:29Z</time>
      </trkpt>
      <trkpt lat="43.59935" lon="3.71546">
        <ele>179.9</ele>
        <time>2022-03-22T13:40:39Z</time>
      </trkpt>
      <trkpt lat="43.59923" lon="3.7156">
        <ele>177.8</ele>
        <time>2022-03-22T13:40:49Z</time>
      </trkpt>
      <trkpt lat="43.59909" lon="3.71569">
        <ele>177.8</ele>
        <time>2022-03-22T13:41:09Z</time>
      </trkpt>
      <trkpt lat="43.59893" lon="3.71578">
        <ele>179</ele>
        <time>2022-03-22T13:41:19Z</time>
      </trkpt>
      <trkpt lat="43.59889" lon="3.71584">
        <ele>180.2</ele>
        <time>2022-03-22T13:41:29Z</time>
      </trkpt>
      <trkpt lat="43.59879" lon="3.71597">
        <ele>181.3</ele>
        <time>2022-03-22T13:41:39Z</time>
      </trkpt>
      <trkpt lat="43.59872" lon="3.71616">
        <ele>183.6</ele>
        <time>2022-03-22T13:41:49Z</time>
      </trkpt>
      <trkpt lat="43.59866" lon="3.71636">
        <ele>185.7</ele>
        <time>2022-03-22T13:41:59Z</time>
      </trkpt>
      <trkpt lat="43.59862" lon="3.71656">
        <ele>187.1</ele>
        <time>2022-03-22T13:42:09Z</time>
      </trkpt>
      <trkpt lat="43.59856" lon="3.71672">
        <ele>188.9</ele>
        <time>2022-03-22T13:42:19Z</time>
      </trkpt>
      <trkpt lat="43.59843" lon="3.71679">
        <ele>190.1</ele>
        <time>2022-03-22T13:42:29Z</time>
      </trkpt>
      <trkpt lat="43.59829" lon="3.71683">
        <ele>191.1</ele>
        <time>2022-03-22T13:42:39Z</time>
      </trkpt>
      <trkpt lat="43.59817" lon="3.71686">
        <ele>192.4</ele>
        <time>2022-03-22T13:42:49Z</time>
      </trkpt>
      <trkpt lat="43.59808" lon="3.71688">
        <ele>193.3</ele>
        <time>2022-03-22T13:42:59Z</time>
      </trkpt>
      <trkpt lat="43.59797" lon="3.7171">
        <ele>192.7</ele>
        <time>2022-03-22T13:43:19Z</time>
      </trkpt>
      <trkpt lat="43.59788" lon="3.71737">
        <ele>190.6</ele>
        <time>2022-03-22T13:43:29Z</time>
      </trkpt>
      <trkpt lat="43.59808" lon="3.71754">
        <ele>188.3</ele>
        <time>2022-03-22T13:43:39Z</time>
      </trkpt>
      <trkpt lat="43.59835" lon="3.71761">
        <ele>188.5</ele>
        <time>2022-03-22T13:43:49Z</time>
      </trkpt>
      <trkpt lat="43.59847" lon="3.7179">
        <ele>190.2</ele>
        <time>2022-03-22T13:43:59Z</time>
      </trkpt>
      <trkpt lat="43.59851" lon="3.7182">
        <ele>192</ele>
        <time>2022-03-22T13:44:09Z</time>
      </trkpt>
      <trkpt lat="43.59851" lon="3.71852">
        <ele>192.5</ele>
        <time>2022-03-22T13:44:19Z</time>
      </trkpt>
      <trkpt lat="43.5986" lon="3.71869">
        <ele>195.3</ele>
        <time>2022-03-22T13:44:29Z</time>
      </trkpt>
      <trkpt lat="43.59863" lon="3.71842">
        <ele>195.6</ele>
        <time>2022-03-22T13:44:39Z</time>
      </trkpt>
      <trkpt lat="43.5987" lon="3.71816">
        <ele>196.7</ele>
        <time>2022-03-22T13:44:49Z</time>
      </trkpt>
      <trkpt lat="43.5988" lon="3.71792">
        <ele>197.9</ele>
        <time>2022-03-22T13:44:59Z</time>
      </trkpt>
      <trkpt lat="43.59893" lon="3.71772">
        <ele>199.6</ele>
        <time>2022-03-22T13:45:09Z</time>
      </trkpt>
      <trkpt lat="43.59906" lon="3.71754">
        <ele>201.3</ele>
        <time>2022-03-22T13:45:19Z</time>
      </trkpt>
      <trkpt lat="43.59919" lon="3.71736">
        <ele>203.2</ele>
        <time>2022-03-22T13:45:29Z</time>
      </trkpt>
      <trkpt lat="43.59935" lon="3.71737">
        <ele>204.4</ele>
        <time>2022-03-22T13:45:39Z</time>
      </trkpt>
      <trkpt lat="43.59948" lon="3.71755">
        <ele>206.3</ele>
        <time>2022-03-22T13:45:49Z</time>
      </trkpt>
      <trkpt lat="43.59961" lon="3.71773">
        <ele>207.6</ele>
        <time>2022-03-22T13:45:59Z</time>
      </trkpt>
      <trkpt lat="43.59976" lon="3.71789">
        <ele>209</ele>
        <time>2022-03-22T13:46:09Z</time>
      </trkpt>
      <trkpt lat="43.59994" lon="3.71806">
        <ele>210.3</ele>
        <time>2022-03-22T13:46:19Z</time>
      </trkpt>
      <trkpt lat="43.60007" lon="3.71818">
        <ele>212</ele>
        <time>2022-03-22T13:46:29Z</time>
      </trkpt>
      <trkpt lat="43.60022" lon="3.71829">
        <ele>213.4</ele>
        <time>2022-03-22T13:46:39Z</time>
      </trkpt>
      <trkpt lat="43.60038" lon="3.71837">
        <ele>215</ele>
        <time>2022-03-22T13:46:49Z</time>
      </trkpt>
      <trkpt lat="43.60055" lon="3.71844">
        <ele>216.9</ele>
        <time>2022-03-22T13:46:59Z</time>
      </trkpt>
      <trkpt lat="43.6007" lon="3.7185">
        <ele>217.7</ele>
        <time>2022-03-22T13:47:09Z</time>
      </trkpt>
      <trkpt lat="43.60084" lon="3.7186">
        <ele>218.8</ele>
        <time>2022-03-22T13:47:19Z</time>
      </trkpt>
      <trkpt lat="43.60098" lon="3.7187">
        <ele>219.9</ele>
        <time>2022-03-22T13:47:29Z</time>
      </trkpt>
      <trkpt lat="43.60111" lon="3.71886">
        <ele>221.6</ele>
        <time>2022-03-22T13:47:39Z</time>
      </trkpt>
      <trkpt lat="43.60121" lon="3.7191">
        <ele>222.6</ele>
        <time>2022-03-22T13:47:49Z</time>
      </trkpt>
      <trkpt lat="43.60132" lon="3.71938">
        <ele>223.7</ele>
        <time>2022-03-22T13:47:59Z</time>
      </trkpt>
      <trkpt lat="43.60143" lon="3.71969">
        <ele>225.2</ele>
        <time>2022-03-22T13:48:09Z</time>
      </trkpt>
      <trkpt lat="43.60154" lon="3.71999">
        <ele>225.9</ele>
        <time>2022-03-22T13:48:19Z</time>
      </trkpt>
      <trkpt lat="43.60153" lon="3.72024">
        <ele>225.6</ele>
        <time>2022-03-22T13:48:29Z</time>
      </trkpt>
      <trkpt lat="43.6014" lon="3.72048">
        <ele>223.1</ele>
        <time>2022-03-22T13:48:39Z</time>
      </trkpt>
      <trkpt lat="43.60123" lon="3.72087">
        <ele>217.3</ele>
        <time>2022-03-22T13:48:49Z</time>
      </trkpt>
      <trkpt lat="43.60101" lon="3.72128">
        <ele>208.3</ele>
        <time>2022-03-22T13:48:59Z</time>
      </trkpt>
      <trkpt lat="43.60082" lon="3.72171">
        <ele>196.3</ele>
        <time>2022-03-22T13:49:09Z</time>
      </trkpt>
      <trkpt lat="43.60056" lon="3.72211">
        <ele>187.5</ele>
        <time>2022-03-22T13:49:19Z</time>
      </trkpt>
      <trkpt lat="43.60033" lon="3.72267">
        <ele>179.5</ele>
        <time>2022-03-22T13:49:29Z</time>
      </trkpt>
      <trkpt lat="43.60028" lon="3.72338">
        <ele>170.3</ele>
        <time>2022-03-22T13:49:39Z</time>
      </trkpt>
      <trkpt lat="43.60022" lon="3.72399">
        <ele>163</ele>
        <time>2022-03-22T13:49:49Z</time>
      </trkpt>
      <trkpt lat="43.60006" lon="3.72466">
        <ele>155</ele>
        <time>2022-03-22T13:49:59Z</time>
      </trkpt>
      <trkpt lat="43.5999" lon="3.72512">
        <ele>149.6</ele>
        <time>2022-03-22T13:50:09Z</time>
      </trkpt>
      <trkpt lat="43.59964" lon="3.72566">
        <ele>144.8</ele>
        <time>2022-03-22T13:50:19Z</time>
      </trkpt>
      <trkpt lat="43.59925" lon="3.72601">
        <ele>140.1</ele>
        <time>2022-03-22T13:50:29Z</time>
      </trkpt>
      <trkpt lat="43.59914" lon="3.72643">
        <ele>137.7</ele>
        <time>2022-03-22T13:50:39Z</time>
      </trkpt>
      <trkpt lat="43.59941" lon="3.72674">
        <ele>138.5</ele>
        <time>2022-03-22T13:50:49Z</time>
      </trkpt>
      <trkpt lat="43.5996" lon="3.7271">
        <ele>136.3</ele>
        <time>2022-03-22T13:50:59Z</time>
      </trkpt>
      <trkpt lat="43.5996" lon="3.72774">
        <ele>132</ele>
        <time>2022-03-22T13:51:09Z</time>
      </trkpt>
      <trkpt lat="43.59928" lon="3.72838">
        <ele>131.3</ele>
        <time>2022-03-22T13:51:19Z</time>
      </trkpt>
      <trkpt lat="43.59908" lon="3.72891">
        <ele>131.1</ele>
        <time>2022-03-22T13:51:29Z</time>
      </trkpt>
      <trkpt lat="43.59887" lon="3.72935">
        <ele>131</ele>
        <time>2022-03-22T13:51:39Z</time>
      </trkpt>
      <trkpt lat="43.5986" lon="3.72994">
        <ele>129.6</ele>
        <time>2022-03-22T13:51:49Z</time>
      </trkpt>
      <trkpt lat="43.59843" lon="3.7306">
        <ele>130</ele>
        <time>2022-03-22T13:51:59Z</time>
      </trkpt>
      <trkpt lat="43.59834" lon="3.73111">
        <ele>130</ele>
        <time>2022-03-22T13:52:09Z</time>
      </trkpt>
      <trkpt lat="43.5986" lon="3.7315">
        <ele>127.1</ele>
        <time>2022-03-22T13:52:19Z</time>
      </trkpt>
      <trkpt lat="43.59879" lon="3.73192">
        <ele>126</ele>
        <time>2022-03-22T13:52:29Z</time>
      </trkpt>
      <trkpt lat="43.59895" lon="3.73223">
        <ele>124.8</ele>
        <time>2022-03-22T13:52:39Z</time>
      </trkpt>
      <trkpt lat="43.59911" lon="3.73243">
        <ele>124.7</ele>
        <time>2022-03-22T13:52:49Z</time>
      </trkpt>
      <trkpt lat="43.59928" lon="3.73298">
        <ele>124.8</ele>
        <time>2022-03-22T13:52:59Z</time>
      </trkpt>
      <trkpt lat="43.59936" lon="3.73327">
        <ele>123.5</ele>
        <time>2022-03-22T13:53:09Z</time>
      </trkpt>
      <trkpt lat="43.59931" lon="3.73328">
        <ele>124.4</ele>
        <time>2022-03-22T13:53:19Z</time>
      </trkpt>
      <trkpt lat="43.59935" lon="3.73353">
        <ele>123.5</ele>
        <time>2022-03-22T13:53:29Z</time>
      </trkpt>
      <trkpt lat="43.59955" lon="3.73392">
        <ele>123.3</ele>
        <time>2022-03-22T13:53:49Z</time>
      </trkpt>
      <trkpt lat="43.59981" lon="3.73432">
        <ele>123.2</ele>
        <time>2022-03-22T13:53:59Z</time>
      </trkpt>
      <trkpt lat="43.60001" lon="3.73477">
        <ele>121.2</ele>
        <time>2022-03-22T13:54:09Z</time>
      </trkpt>
      <trkpt lat="43.60033" lon="3.73479">
        <ele>120.4</ele>
        <time>2022-03-22T13:54:19Z</time>
      </trkpt>
      <trkpt lat="43.60042" lon="3.73476">
        <ele>120.3</ele>
        <time>2022-03-22T13:54:29Z</time>
      </trkpt>
      <trkpt lat="43.60068" lon="3.73462">
        <ele>121.3</ele>
        <time>2022-03-22T13:54:39Z</time>
      </trkpt>
      <trkpt lat="43.60084" lon="3.73505">
        <ele>119.9</ele>
        <time>2022-03-22T13:54:49Z</time>
      </trkpt>
      <trkpt lat="43.60104" lon="3.73594">
        <ele>116.5</ele>
        <time>2022-03-22T13:54:59Z</time>
      </trkpt>
      <trkpt lat="43.60118" lon="3.73687">
        <ele>116.3</ele>
        <time>2022-03-22T13:55:09Z</time>
      </trkpt>
      <trkpt lat="43.60119" lon="3.73756">
        <ele>116.1</ele>
        <time>2022-03-22T13:55:19Z</time>
      </trkpt>
      <trkpt lat="43.60107" lon="3.73814">
        <ele>117.5</ele>
        <time>2022-03-22T13:55:29Z</time>
      </trkpt>
      <trkpt lat="43.60102" lon="3.73859">
        <ele>118.6</ele>
        <time>2022-03-22T13:55:39Z</time>
      </trkpt>
      <trkpt lat="43.60088" lon="3.73899">
        <ele>119.2</ele>
        <time>2022-03-22T13:55:49Z</time>
      </trkpt>
      <trkpt lat="43.60069" lon="3.73942">
        <ele>119.1</ele>
        <time>2022-03-22T13:55:59Z</time>
      </trkpt>
      <trkpt lat="43.60095" lon="3.73956">
        <ele>117.5</ele>
        <time>2022-03-22T13:56:09Z</time>
      </trkpt>
      <trkpt lat="43.60163" lon="3.73926">
        <ele>114.1</ele>
        <time>2022-03-22T13:56:19Z</time>
      </trkpt>
      <trkpt lat="43.6024" lon="3.73913">
        <ele>111.5</ele>
        <time>2022-03-22T13:56:29Z</time>
      </trkpt>
      <trkpt lat="43.6029" lon="3.73935">
        <ele>114.3</ele>
        <time>2022-03-22T13:56:39Z</time>
      </trkpt>
      <trkpt lat="43.60329" lon="3.73954">
        <ele>117.1</ele>
        <time>2022-03-22T13:56:49Z</time>
      </trkpt>
      <trkpt lat="43.60371" lon="3.73957">
        <ele>118.6</ele>
        <time>2022-03-22T13:56:59Z</time>
      </trkpt>
      <trkpt lat="43.60414" lon="3.73957">
        <ele>118.1</ele>
        <time>2022-03-22T13:57:09Z</time>
      </trkpt>
      <trkpt lat="43.60423" lon="3.74057">
        <ele>111.5</ele>
        <time>2022-03-22T13:57:19Z</time>
      </trkpt>
      <trkpt lat="43.60424" lon="3.74163">
        <ele>108.4</ele>
        <time>2022-03-22T13:57:29Z</time>
      </trkpt>
      <trkpt lat="43.60419" lon="3.74255">
        <ele>110.2</ele>
        <time>2022-03-22T13:57:39Z</time>
      </trkpt>
      <trkpt lat="43.60417" lon="3.74335">
        <ele>110</ele>
        <time>2022-03-22T13:57:49Z</time>
      </trkpt>
      <trkpt lat="43.60417" lon="3.74401">
        <ele>108.6</ele>
        <time>2022-03-22T13:57:59Z</time>
      </trkpt>
      <trkpt lat="43.60416" lon="3.74432">
        <ele>107.4</ele>
        <time>2022-03-22T13:58:09Z</time>
      </trkpt>
      <trkpt lat="43.60417" lon="3.74514">
        <ele>104.5</ele>
        <time>2022-03-22T13:58:29Z</time>
      </trkpt>
      <trkpt lat="43.60417" lon="3.74613">
        <ele>102</ele>
        <time>2022-03-22T13:58:39Z</time>
      </trkpt>
      <trkpt lat="43.60424" lon="3.74707">
        <ele>101.2</ele>
        <time>2022-03-22T13:58:49Z</time>
      </trkpt>
      <trkpt lat="43.60432" lon="3.74784">
        <ele>102.5</ele>
        <time>2022-03-22T13:58:59Z</time>
      </trkpt>
      <trkpt lat="43.60424" lon="3.74853">
        <ele>101.5</ele>
        <time>2022-03-22T13:59:09Z</time>
      </trkpt>
      <trkpt lat="43.60433" lon="3.74927">
        <ele>100.4</ele>
        <time>2022-03-22T13:59:19Z</time>
      </trkpt>
      <trkpt lat="43.60452" lon="3.75001">
        <ele>100.3</ele>
        <time>2022-03-22T13:59:29Z</time>
      </trkpt>
      <trkpt lat="43.60444" lon="3.75057">
        <ele>102</ele>
        <time>2022-03-22T13:59:39Z</time>
      </trkpt>
      <trkpt lat="43.60419" lon="3.75099">
        <ele>101.4</ele>
        <time>2022-03-22T13:59:49Z</time>
      </trkpt>
      <trkpt lat="43.60389" lon="3.7514">
        <ele>102</ele>
        <time>2022-03-22T13:59:59Z</time>
      </trkpt>
      <trkpt lat="43.60358" lon="3.75183">
        <ele>101.8</ele>
        <time>2022-03-22T14:00:09Z</time>
      </trkpt>
      <trkpt lat="43.60327" lon="3.75226">
        <ele>101.6</ele>
        <time>2022-03-22T14:00:19Z</time>
      </trkpt>
      <trkpt lat="43.60297" lon="3.7527">
        <ele>101.6</ele>
        <time>2022-03-22T14:00:29Z</time>
      </trkpt>
      <trkpt lat="43.60274" lon="3.75317">
        <ele>102.3</ele>
        <time>2022-03-22T14:00:39Z</time>
      </trkpt>
      <trkpt lat="43.60277" lon="3.75379">
        <ele>101.4</ele>
        <time>2022-03-22T14:00:49Z</time>
      </trkpt>
      <trkpt lat="43.603" lon="3.75439">
        <ele>101</ele>
        <time>2022-03-22T14:00:59Z</time>
      </trkpt>
      <trkpt lat="43.60312" lon="3.75512">
        <ele>99.4</ele>
        <time>2022-03-22T14:01:09Z</time>
      </trkpt>
      <trkpt lat="43.60313" lon="3.7559">
        <ele>98.4</ele>
        <time>2022-03-22T14:01:19Z</time>
      </trkpt>
      <trkpt lat="43.60299" lon="3.75666">
        <ele>97.3</ele>
        <time>2022-03-22T14:01:29Z</time>
      </trkpt>
      <trkpt lat="43.60274" lon="3.7573">
        <ele>97.1</ele>
        <time>2022-03-22T14:01:39Z</time>
      </trkpt>
      <trkpt lat="43.60251" lon="3.75788">
        <ele>98</ele>
        <time>2022-03-22T14:01:49Z</time>
      </trkpt>
      <trkpt lat="43.60225" lon="3.75833">
        <ele>97.2</ele>
        <time>2022-03-22T14:01:59Z</time>
      </trkpt>
      <trkpt lat="43.60189" lon="3.75864">
        <ele>96.7</ele>
        <time>2022-03-22T14:02:09Z</time>
      </trkpt>
      <trkpt lat="43.60145" lon="3.75889">
        <ele>94.4</ele>
        <time>2022-03-22T14:02:19Z</time>
      </trkpt>
      <trkpt lat="43.60102" lon="3.75936">
        <ele>92.6</ele>
        <time>2022-03-22T14:02:29Z</time>
      </trkpt>
      <trkpt lat="43.6008" lon="3.76007">
        <ele>91.2</ele>
        <time>2022-03-22T14:02:39Z</time>
      </trkpt>
      <trkpt lat="43.60065" lon="3.76071">
        <ele>92.2</ele>
        <time>2022-03-22T14:02:49Z</time>
      </trkpt>
      <trkpt lat="43.60082" lon="3.76133">
        <ele>90.9</ele>
        <time>2022-03-22T14:02:59Z</time>
      </trkpt>
      <trkpt lat="43.60114" lon="3.7618">
        <ele>90.6</ele>
        <time>2022-03-22T14:03:09Z</time>
      </trkpt>
      <trkpt lat="43.60142" lon="3.76232">
        <ele>88.6</ele>
        <time>2022-03-22T14:03:19Z</time>
      </trkpt>
      <trkpt lat="43.60148" lon="3.76295">
        <ele>87.1</ele>
        <time>2022-03-22T14:03:29Z</time>
      </trkpt>
      <trkpt lat="43.60135" lon="3.76344">
        <ele>85</ele>
        <time>2022-03-22T14:03:39Z</time>
      </trkpt>
      <trkpt lat="43.60113" lon="3.76391">
        <ele>82.9</ele>
        <time>2022-03-22T14:03:49Z</time>
      </trkpt>
      <trkpt lat="43.60068" lon="3.76451">
        <ele>81.9</ele>
        <time>2022-03-22T14:03:59Z</time>
      </trkpt>
      <trkpt lat="43.60018" lon="3.765">
        <ele>80.1</ele>
        <time>2022-03-22T14:04:09Z</time>
      </trkpt>
      <trkpt lat="43.59977" lon="3.76562">
        <ele>78.1</ele>
        <time>2022-03-22T14:04:19Z</time>
      </trkpt>
      <trkpt lat="43.59964" lon="3.76633">
        <ele>76.2</ele>
        <time>2022-03-22T14:04:29Z</time>
      </trkpt>
      <trkpt lat="43.59955" lon="3.76715">
        <ele>75.2</ele>
        <time>2022-03-22T14:04:39Z</time>
      </trkpt>
      <trkpt lat="43.59932" lon="3.76805">
        <ele>73.9</ele>
        <time>2022-03-22T14:04:49Z</time>
      </trkpt>
      <trkpt lat="43.59916" lon="3.76888">
        <ele>70.2</ele>
        <time>2022-03-22T14:04:59Z</time>
      </trkpt>
      <trkpt lat="43.5989" lon="3.76972">
        <ele>68.3</ele>
        <time>2022-03-22T14:05:09Z</time>
      </trkpt>
      <trkpt lat="43.59843" lon="3.77044">
        <ele>67.4</ele>
        <time>2022-03-22T14:05:19Z</time>
      </trkpt>
      <trkpt lat="43.59795" lon="3.77109">
        <ele>65.5</ele>
        <time>2022-03-22T14:05:29Z</time>
      </trkpt>
      <trkpt lat="43.59746" lon="3.77158">
        <ele>63.6</ele>
        <time>2022-03-22T14:05:39Z</time>
      </trkpt>
      <trkpt lat="43.59716" lon="3.77186">
        <ele>62.2</ele>
        <time>2022-03-22T14:05:49Z</time>
      </trkpt>
      <trkpt lat="43.59689" lon="3.77214">
        <ele>61.3</ele>
        <time>2022-03-22T14:05:59Z</time>
      </trkpt>
      <trkpt lat="43.59658" lon="3.7724">
        <ele>60.6</ele>
        <time>2022-03-22T14:06:09Z</time>
      </trkpt>
      <trkpt lat="43.59625" lon="3.77262">
        <ele>60.6</ele>
        <time>2022-03-22T14:06:19Z</time>
      </trkpt>
      <trkpt lat="43.5959" lon="3.7729">
        <ele>60</ele>
        <time>2022-03-22T14:06:29Z</time>
      </trkpt>
      <trkpt lat="43.59557" lon="3.77324">
        <ele>59.3</ele>
        <time>2022-03-22T14:06:39Z</time>
      </trkpt>
      <trkpt lat="43.59522" lon="3.7735">
        <ele>59.4</ele>
        <time>2022-03-22T14:06:49Z</time>
      </trkpt>
      <trkpt lat="43.59488" lon="3.77383">
        <ele>59</ele>
        <time>2022-03-22T14:06:59Z</time>
      </trkpt>
      <trkpt lat="43.59463" lon="3.77434">
        <ele>57.3</ele>
        <time>2022-03-22T14:07:09Z</time>
      </trkpt>
      <trkpt lat="43.59461" lon="3.77499">
        <ele>56</ele>
        <time>2022-03-22T14:07:19Z</time>
      </trkpt>
      <trkpt lat="43.59426" lon="3.77542">
        <ele>55</ele>
        <time>2022-03-22T14:07:29Z</time>
      </trkpt>
      <trkpt lat="43.59399" lon="3.77577">
        <ele>54.2</ele>
        <time>2022-03-22T14:07:39Z</time>
      </trkpt>
      <trkpt lat="43.59404" lon="3.77618">
        <ele>54</ele>
        <time>2022-03-22T14:07:49Z</time>
      </trkpt>
      <trkpt lat="43.59413" lon="3.77652">
        <ele>53.5</ele>
        <time>2022-03-22T14:07:59Z</time>
      </trkpt>
      <trkpt lat="43.59425" lon="3.77706">
        <ele>52.7</ele>
        <time>2022-03-22T14:08:09Z</time>
      </trkpt>
      <trkpt lat="43.59392" lon="3.77748">
        <ele>52.1</ele>
        <time>2022-03-22T14:08:19Z</time>
      </trkpt>
      <trkpt lat="43.59361" lon="3.77793">
        <ele>52</ele>
        <time>2022-03-22T14:08:29Z</time>
      </trkpt>
      <trkpt lat="43.59344" lon="3.77851">
        <ele>51.4</ele>
        <time>2022-03-22T14:08:39Z</time>
      </trkpt>
      <trkpt lat="43.59337" lon="3.77917">
        <ele>51</ele>
        <time>2022-03-22T14:08:49Z</time>
      </trkpt>
      <trkpt lat="43.59332" lon="3.77982">
        <ele>50</ele>
        <time>2022-03-22T14:08:59Z</time>
      </trkpt>
      <trkpt lat="43.59334" lon="3.7805">
        <ele>50</ele>
        <time>2022-03-22T14:09:09Z</time>
      </trkpt>
      <trkpt lat="43.59334" lon="3.78115">
        <ele>49</ele>
        <time>2022-03-22T14:09:19Z</time>
      </trkpt>
      <trkpt lat="43.59316" lon="3.78174">
        <ele>47.7</ele>
        <time>2022-03-22T14:09:29Z</time>
      </trkpt>
      <trkpt lat="43.5929" lon="3.78166">
        <ele>47.5</ele>
        <time>2022-03-22T14:09:39Z</time>
      </trkpt>
      <trkpt lat="43.59267" lon="3.7815">
        <ele>47.8</ele>
        <time>2022-03-22T14:09:49Z</time>
      </trkpt>
      <trkpt lat="43.59237" lon="3.78134">
        <ele>48.6</ele>
        <time>2022-03-22T14:09:59Z</time>
      </trkpt>
      <trkpt lat="43.59207" lon="3.78132">
        <ele>49.1</ele>
        <time>2022-03-22T14:10:09Z</time>
      </trkpt>
      <trkpt lat="43.59175" lon="3.78135">
        <ele>49.7</ele>
        <time>2022-03-22T14:10:19Z</time>
      </trkpt>
      <trkpt lat="43.59145" lon="3.78141">
        <ele>50.8</ele>
        <time>2022-03-22T14:10:29Z</time>
      </trkpt>
      <trkpt lat="43.59119" lon="3.78148">
        <ele>52.2</ele>
        <time>2022-03-22T14:10:39Z</time>
      </trkpt>
      <trkpt lat="43.59099" lon="3.78155">
        <ele>53.6</ele>
        <time>2022-03-22T14:10:49Z</time>
      </trkpt>
      <trkpt lat="43.59084" lon="3.78165">
        <ele>55.8</ele>
        <time>2022-03-22T14:10:59Z</time>
      </trkpt>
      <trkpt lat="43.59071" lon="3.78173">
        <ele>57.3</ele>
        <time>2022-03-22T14:11:09Z</time>
      </trkpt>
      <trkpt lat="43.5906" lon="3.78182">
        <ele>58.5</ele>
        <time>2022-03-22T14:11:19Z</time>
      </trkpt>
      <trkpt lat="43.59049" lon="3.78192">
        <ele>59.9</ele>
        <time>2022-03-22T14:11:29Z</time>
      </trkpt>
      <trkpt lat="43.59039" lon="3.78201">
        <ele>61.9</ele>
        <time>2022-03-22T14:11:39Z</time>
      </trkpt>
      <trkpt lat="43.59031" lon="3.7821">
        <ele>63.7</ele>
        <time>2022-03-22T14:11:49Z</time>
      </trkpt>
      <trkpt lat="43.59023" lon="3.78219">
        <ele>65.5</ele>
        <time>2022-03-22T14:11:59Z</time>
      </trkpt>
      <trkpt lat="43.59025" lon="3.78228">
        <ele>65.9</ele>
        <time>2022-03-22T14:12:19Z</time>
      </trkpt>
      <trkpt lat="43.5905" lon="3.78255">
        <ele>65.1</ele>
        <time>2022-03-22T14:12:29Z</time>
      </trkpt>
      <trkpt lat="43.59072" lon="3.78294">
        <ele>64.2</ele>
        <time>2022-03-22T14:12:39Z</time>
      </trkpt>
      <trkpt lat="43.59091" lon="3.78342">
        <ele>63.5</ele>
        <time>2022-03-22T14:12:49Z</time>
      </trkpt>
      <trkpt lat="43.59097" lon="3.78388">
        <ele>60.1</ele>
        <time>2022-03-22T14:12:59Z</time>
      </trkpt>
      <trkpt lat="43.59104" lon="3.78471">
        <ele>55.8</ele>
        <time>2022-03-22T14:13:09Z</time>
      </trkpt>
      <trkpt lat="43.59103" lon="3.78561">
        <ele>55.2</ele>
        <time>2022-03-22T14:13:19Z</time>
      </trkpt>
      <trkpt lat="43.59087" lon="3.78645">
        <ele>50.9</ele>
        <time>2022-03-22T14:13:29Z</time>
      </trkpt>
      <trkpt lat="43.59065" lon="3.78712">
        <ele>51.6</ele>
        <time>2022-03-22T14:13:39Z</time>
      </trkpt>
      <trkpt lat="43.59085" lon="3.78789">
        <ele>46.4</ele>
        <time>2022-03-22T14:13:49Z</time>
      </trkpt>
      <trkpt lat="43.5911" lon="3.78865">
        <ele>42.9</ele>
        <time>2022-03-22T14:13:59Z</time>
      </trkpt>
      <trkpt lat="43.59127" lon="3.78908">
        <ele>41.5</ele>
        <time>2022-03-22T14:14:09Z</time>
      </trkpt>
      <trkpt lat="43.59156" lon="3.78962">
        <ele>41.6</ele>
        <time>2022-03-22T14:14:19Z</time>
      </trkpt>
      <trkpt lat="43.59182" lon="3.7901">
        <ele>42.9</ele>
        <time>2022-03-22T14:14:29Z</time>
      </trkpt>
      <trkpt lat="43.59177" lon="3.79058">
        <ele>44</ele>
        <time>2022-03-22T14:14:39Z</time>
      </trkpt>
      <trkpt lat="43.59167" lon="3.7911">
        <ele>44</ele>
        <time>2022-03-22T14:14:49Z</time>
      </trkpt>
      <trkpt lat="43.59161" lon="3.79169">
        <ele>42.1</ele>
        <time>2022-03-22T14:14:59Z</time>
      </trkpt>
      <trkpt lat="43.59158" lon="3.79226">
        <ele>37.7</ele>
        <time>2022-03-22T14:15:09Z</time>
      </trkpt>
      <trkpt lat="43.59142" lon="3.7927">
        <ele>36.2</ele>
        <time>2022-03-22T14:15:19Z</time>
      </trkpt>
      <trkpt lat="43.59126" lon="3.79309">
        <ele>34.5</ele>
        <time>2022-03-22T14:15:29Z</time>
      </trkpt>
      <trkpt lat="43.59111" lon="3.79333">
        <ele>34</ele>
        <time>2022-03-22T14:15:39Z</time>
      </trkpt>
      <trkpt lat="43.59111" lon="3.79367">
        <ele>35</ele>
        <time>2022-03-22T14:15:49Z</time>
      </trkpt>
      <trkpt lat="43.59105" lon="3.79413">
        <ele>35.6</ele>
        <time>2022-03-22T14:15:59Z</time>
      </trkpt>
      <trkpt lat="43.59093" lon="3.79459">
        <ele>35.9</ele>
        <time>2022-03-22T14:16:09Z</time>
      </trkpt>
      <trkpt lat="43.59078" lon="3.79501">
        <ele>36.6</ele>
        <time>2022-03-22T14:16:19Z</time>
      </trkpt>
      <trkpt lat="43.59061" lon="3.7954">
        <ele>36.2</ele>
        <time>2022-03-22T14:16:29Z</time>
      </trkpt>
      <trkpt lat="43.59043" lon="3.79577">
        <ele>36.9</ele>
        <time>2022-03-22T14:16:39Z</time>
      </trkpt>
      <trkpt lat="43.59019" lon="3.79604">
        <ele>37.7</ele>
        <time>2022-03-22T14:16:49Z</time>
      </trkpt>
      <trkpt lat="43.58993" lon="3.79629">
        <ele>38</ele>
        <time>2022-03-22T14:16:59Z</time>
      </trkpt>
      <trkpt lat="43.58975" lon="3.79662">
        <ele>38.9</ele>
        <time>2022-03-22T14:17:09Z</time>
      </trkpt>
      <trkpt lat="43.58988" lon="3.79698">
        <ele>40.6</ele>
        <time>2022-03-22T14:17:19Z</time>
      </trkpt>
      <trkpt lat="43.58967" lon="3.79726">
        <ele>39.9</ele>
        <time>2022-03-22T14:17:29Z</time>
      </trkpt>
      <trkpt lat="43.58931" lon="3.79758">
        <ele>39</ele>
        <time>2022-03-22T14:17:39Z</time>
      </trkpt>
      <trkpt lat="43.58899" lon="3.79799">
        <ele>38.3</ele>
        <time>2022-03-22T14:17:49Z</time>
      </trkpt>
      <trkpt lat="43.58901" lon="3.79838">
        <ele>38.5</ele>
        <time>2022-03-22T14:17:59Z</time>
      </trkpt>
      <trkpt lat="43.5892" lon="3.79878">
        <ele>39</ele>
        <time>2022-03-22T14:18:09Z</time>
      </trkpt>
      <trkpt lat="43.5894" lon="3.7992">
        <ele>40.6</ele>
        <time>2022-03-22T14:18:19Z</time>
      </trkpt>
      <trkpt lat="43.58959" lon="3.7996">
        <ele>41.6</ele>
        <time>2022-03-22T14:18:29Z</time>
      </trkpt>
      <trkpt lat="43.58979" lon="3.80001">
        <ele>40.7</ele>
        <time>2022-03-22T14:18:39Z</time>
      </trkpt>
      <trkpt lat="43.59003" lon="3.8005">
        <ele>40.6</ele>
        <time>2022-03-22T14:18:49Z</time>
      </trkpt>
      <trkpt lat="43.59023" lon="3.80086">
        <ele>41</ele>
        <time>2022-03-22T14:18:59Z</time>
      </trkpt>
      <trkpt lat="43.59029" lon="3.80128">
        <ele>41.6</ele>
        <time>2022-03-22T14:19:09Z</time>
      </trkpt>
      <trkpt lat="43.59047" lon="3.80167">
        <ele>42.7</ele>
        <time>2022-03-22T14:19:19Z</time>
      </trkpt>
      <trkpt lat="43.59066" lon="3.80209">
        <ele>43.2</ele>
        <time>2022-03-22T14:19:29Z</time>
      </trkpt>
      <trkpt lat="43.59081" lon="3.80252">
        <ele>44.1</ele>
        <time>2022-03-22T14:19:39Z</time>
      </trkpt>
      <trkpt lat="43.59092" lon="3.80304">
        <ele>44.3</ele>
        <time>2022-03-22T14:19:49Z</time>
      </trkpt>
      <trkpt lat="43.59097" lon="3.80366">
        <ele>43.2</ele>
        <time>2022-03-22T14:19:59Z</time>
      </trkpt>
      <trkpt lat="43.59096" lon="3.80426">
        <ele>41.2</ele>
        <time>2022-03-22T14:20:09Z</time>
      </trkpt>
      <trkpt lat="43.59076" lon="3.80505">
        <ele>39.8</ele>
        <time>2022-03-22T14:20:19Z</time>
      </trkpt>
      <trkpt lat="43.5903" lon="3.80592">
        <ele>35.6</ele>
        <time>2022-03-22T14:20:29Z</time>
      </trkpt>
      <trkpt lat="43.58972" lon="3.80675">
        <ele>33.7</ele>
        <time>2022-03-22T14:20:39Z</time>
      </trkpt>
      <trkpt lat="43.58919" lon="3.80746">
        <ele>32.1</ele>
        <time>2022-03-22T14:20:49Z</time>
      </trkpt>
      <trkpt lat="43.58873" lon="3.80811">
        <ele>31.3</ele>
        <time>2022-03-22T14:20:59Z</time>
      </trkpt>
      <trkpt lat="43.58821" lon="3.80886">
        <ele>29.6</ele>
        <time>2022-03-22T14:21:09Z</time>
      </trkpt>
      <trkpt lat="43.58798" lon="3.80971">
        <ele>28</ele>
        <time>2022-03-22T14:21:19Z</time>
      </trkpt>
      <trkpt lat="43.58826" lon="3.8105">
        <ele>27.1</ele>
        <time>2022-03-22T14:21:29Z</time>
      </trkpt>
      <trkpt lat="43.58873" lon="3.81111">
        <ele>27</ele>
        <time>2022-03-22T14:21:39Z</time>
      </trkpt>
      <trkpt lat="43.58927" lon="3.81159">
        <ele>26.6</ele>
        <time>2022-03-22T14:21:49Z</time>
      </trkpt>
      <trkpt lat="43.58978" lon="3.81207">
        <ele>26.4</ele>
        <time>2022-03-22T14:21:59Z</time>
      </trkpt>
      <trkpt lat="43.59025" lon="3.81256">
        <ele>26.3</ele>
        <time>2022-03-22T14:22:09Z</time>
      </trkpt>
      <trkpt lat="43.59065" lon="3.81313">
        <ele>26.2</ele>
        <time>2022-03-22T14:22:19Z</time>
      </trkpt>
      <trkpt lat="43.591" lon="3.81379">
        <ele>25.6</ele>
        <time>2022-03-22T14:22:29Z</time>
      </trkpt>
      <trkpt lat="43.59126" lon="3.81453">
        <ele>24.6</ele>
        <time>2022-03-22T14:22:39Z</time>
      </trkpt>
      <trkpt lat="43.59144" lon="3.81521">
        <ele>25.4</ele>
        <time>2022-03-22T14:22:49Z</time>
      </trkpt>
      <trkpt lat="43.59156" lon="3.81573">
        <ele>25.2</ele>
        <time>2022-03-22T14:22:59Z</time>
      </trkpt>
      <trkpt lat="43.59168" lon="3.81624">
        <ele>22</ele>
        <time>2022-03-22T14:23:09Z</time>
      </trkpt>
      <trkpt lat="43.59184" lon="3.81678">
        <ele>25.4</ele>
        <time>2022-03-22T14:23:19Z</time>
      </trkpt>
      <trkpt lat="43.59205" lon="3.81746">
        <ele>25.6</ele>
        <time>2022-03-22T14:23:29Z</time>
      </trkpt>
      <trkpt lat="43.59242" lon="3.81786">
        <ele>23.9</ele>
        <time>2022-03-22T14:23:39Z</time>
      </trkpt>
      <trkpt lat="43.59269" lon="3.81839">
        <ele>23.6</ele>
        <time>2022-03-22T14:23:49Z</time>
      </trkpt>
      <trkpt lat="43.5928" lon="3.81899">
        <ele>23.4</ele>
        <time>2022-03-22T14:23:59Z</time>
      </trkpt>
      <trkpt lat="43.59289" lon="3.8195">
        <ele>25</ele>
        <time>2022-03-22T14:24:09Z</time>
      </trkpt>
      <trkpt lat="43.59299" lon="3.81999">
        <ele>25</ele>
        <time>2022-03-22T14:24:19Z</time>
      </trkpt>
      <trkpt lat="43.59329" lon="3.82031">
        <ele>25.1</ele>
        <time>2022-03-22T14:24:29Z</time>
      </trkpt>
      <trkpt lat="43.59364" lon="3.82055">
        <ele>26.2</ele>
        <time>2022-03-22T14:24:39Z</time>
      </trkpt>
      <trkpt lat="43.59343" lon="3.82086">
        <ele>26.5</ele>
        <time>2022-03-22T14:24:49Z</time>
      </trkpt>
      <trkpt lat="43.59325" lon="3.82112">
        <ele>27</ele>
        <time>2022-03-22T14:24:59Z</time>
      </trkpt>
      <trkpt lat="43.59322" lon="3.82143">
        <ele>28.8</ele>
        <time>2022-03-22T14:25:09Z</time>
      </trkpt>
      <trkpt lat="43.59341" lon="3.82124">
        <ele>28.8</ele>
        <time>2022-03-22T14:25:19Z</time>
      </trkpt>
      <trkpt lat="43.59359" lon="3.82104">
        <ele>29.7</ele>
        <time>2022-03-22T14:25:29Z</time>
      </trkpt>
      <trkpt lat="43.59385" lon="3.82083">
        <ele>29.6</ele>
        <time>2022-03-22T14:25:39Z</time>
      </trkpt>
      <trkpt lat="43.59417" lon="3.82092">
        <ele>30.9</ele>
        <time>2022-03-22T14:25:49Z</time>
      </trkpt>
      <trkpt lat="43.59433" lon="3.82114">
        <ele>32.1</ele>
        <time>2022-03-22T14:25:59Z</time>
      </trkpt>
      <trkpt lat="43.59452" lon="3.8213">
        <ele>32.9</ele>
        <time>2022-03-22T14:26:09Z</time>
      </trkpt>
      <trkpt lat="43.59468" lon="3.82148">
        <ele>33.7</ele>
        <time>2022-03-22T14:26:19Z</time>
      </trkpt>
      <trkpt lat="43.59483" lon="3.82163">
        <ele>35.1</ele>
        <time>2022-03-22T14:26:29Z</time>
      </trkpt>
      <trkpt lat="43.59501" lon="3.82165">
        <ele>35.8</ele>
        <time>2022-03-22T14:26:39Z</time>
      </trkpt>
      <trkpt lat="43.59518" lon="3.82169">
        <ele>35.7</ele>
        <time>2022-03-22T14:26:49Z</time>
      </trkpt>
      <trkpt lat="43.59542" lon="3.82172">
        <ele>37.1</ele>
        <time>2022-03-22T14:26:59Z</time>
      </trkpt>
      <trkpt lat="43.59565" lon="3.82181">
        <ele>41</ele>
        <time>2022-03-22T14:27:09Z</time>
      </trkpt>
      <trkpt lat="43.59585" lon="3.82188">
        <ele>44.4</ele>
        <time>2022-03-22T14:27:19Z</time>
      </trkpt>
      <trkpt lat="43.59601" lon="3.82195">
        <ele>45.4</ele>
        <time>2022-03-22T14:27:29Z</time>
      </trkpt>
      <trkpt lat="43.59614" lon="3.82201">
        <ele>46.5</ele>
        <time>2022-03-22T14:27:39Z</time>
      </trkpt>
      <trkpt lat="43.59628" lon="3.82207">
        <ele>48.8</ele>
        <time>2022-03-22T14:27:49Z</time>
      </trkpt>
      <trkpt lat="43.59641" lon="3.82214">
        <ele>50.7</ele>
        <time>2022-03-22T14:27:59Z</time>
      </trkpt>
      <trkpt lat="43.59652" lon="3.82224">
        <ele>52.2</ele>
        <time>2022-03-22T14:28:09Z</time>
      </trkpt>
      <trkpt lat="43.59663" lon="3.82237">
        <ele>53.6</ele>
        <time>2022-03-22T14:28:19Z</time>
      </trkpt>
      <trkpt lat="43.5967" lon="3.82255">
        <ele>55.4</ele>
        <time>2022-03-22T14:28:29Z</time>
      </trkpt>
      <trkpt lat="43.59682" lon="3.82267">
        <ele>56.9</ele>
        <time>2022-03-22T14:28:39Z</time>
      </trkpt>
      <trkpt lat="43.59701" lon="3.82265">
        <ele>57.5</ele>
        <time>2022-03-22T14:28:49Z</time>
      </trkpt>
      <trkpt lat="43.5972" lon="3.82268">
        <ele>58.8</ele>
        <time>2022-03-22T14:28:59Z</time>
      </trkpt>
      <trkpt lat="43.59739" lon="3.82272">
        <ele>60</ele>
        <time>2022-03-22T14:29:09Z</time>
      </trkpt>
      <trkpt lat="43.59758" lon="3.82277">
        <ele>60.6</ele>
        <time>2022-03-22T14:29:19Z</time>
      </trkpt>
      <trkpt lat="43.59777" lon="3.82286">
        <ele>60.9</ele>
        <time>2022-03-22T14:29:29Z</time>
      </trkpt>
      <trkpt lat="43.59803" lon="3.8231">
        <ele>60</ele>
        <time>2022-03-22T14:29:39Z</time>
      </trkpt>
      <trkpt lat="43.5983" lon="3.82346">
        <ele>59.4</ele>
        <time>2022-03-22T14:29:49Z</time>
      </trkpt>
      <trkpt lat="43.59873" lon="3.82358">
        <ele>58.5</ele>
        <time>2022-03-22T14:29:59Z</time>
      </trkpt>
      <trkpt lat="43.5992" lon="3.82357">
        <ele>59.8</ele>
        <time>2022-03-22T14:30:09Z</time>
      </trkpt>
      <trkpt lat="43.59954" lon="3.8234">
        <ele>62</ele>
        <time>2022-03-22T14:30:19Z</time>
      </trkpt>
      <trkpt lat="43.59984" lon="3.82332">
        <ele>64.3</ele>
        <time>2022-03-22T14:30:29Z</time>
      </trkpt>
      <trkpt lat="43.60014" lon="3.82332">
        <ele>67</ele>
        <time>2022-03-22T14:30:39Z</time>
      </trkpt>
      <trkpt lat="43.60043" lon="3.82335">
        <ele>69.2</ele>
        <time>2022-03-22T14:30:49Z</time>
      </trkpt>
      <trkpt lat="43.60066" lon="3.82343">
        <ele>71.3</ele>
        <time>2022-03-22T14:30:59Z</time>
      </trkpt>
      <trkpt lat="43.60088" lon="3.82353">
        <ele>72.9</ele>
        <time>2022-03-22T14:31:09Z</time>
      </trkpt>
      <trkpt lat="43.60108" lon="3.82361">
        <ele>73.9</ele>
        <time>2022-03-22T14:31:19Z</time>
      </trkpt>
      <trkpt lat="43.6013" lon="3.82371">
        <ele>75</ele>
        <time>2022-03-22T14:31:29Z</time>
      </trkpt>
      <trkpt lat="43.60154" lon="3.82383">
        <ele>75.8</ele>
        <time>2022-03-22T14:31:39Z</time>
      </trkpt>
      <trkpt lat="43.60183" lon="3.82398">
        <ele>75.4</ele>
        <time>2022-03-22T14:31:49Z</time>
      </trkpt>
      <trkpt lat="43.60238" lon="3.82427">
        <ele>72</ele>
        <time>2022-03-22T14:31:59Z</time>
      </trkpt>
      <trkpt lat="43.60308" lon="3.82464">
        <ele>70.2</ele>
        <time>2022-03-22T14:32:09Z</time>
      </trkpt>
      <trkpt lat="43.60354" lon="3.82489">
        <ele>73.2</ele>
        <time>2022-03-22T14:32:19Z</time>
      </trkpt>
      <trkpt lat="43.60386" lon="3.82505">
        <ele>73.6</ele>
        <time>2022-03-22T14:32:29Z</time>
      </trkpt>
      <trkpt lat="43.60421" lon="3.82514">
        <ele>74.1</ele>
        <time>2022-03-22T14:32:39Z</time>
      </trkpt>
      <trkpt lat="43.60457" lon="3.82526">
        <ele>74.6</ele>
        <time>2022-03-22T14:32:49Z</time>
      </trkpt>
      <trkpt lat="43.61119" lon="3.82856">
        <ele>57.7</ele>
        <time>2022-03-22T14:32:59Z</time>
      </trkpt>
    </trkseg>
  </trk>
</gpx>